Observation data for Aiken on 05/24/2019      Previous  Date  Next       Current Mesonet Observations  Soil Data  Daily Summary Page  Observations in Plain Language
KAI1 240500Z 26006KT 17/15 A2994 RMK A01 T01740149  RH  085%=      5-min Rain = 0
KAI1 240501Z 29002KT 17/15 A2994 RMK A01 T01730147  RH  084%=      5-min Rain = 0
KAI1 240502Z 30003KT 17/15 A2994 RMK A01 T01730147  RH  085%=      5-min Rain = 0
KAI1 240503Z 28004KT 17/15 A2995 RMK A01 T01730147  RH  085%=      5-min Rain = 0
KAI1 240504Z 24004KT 17/15 A2995 RMK A01 T01720145  RH  084%=      5-min Rain = 0.01
KAI1 240505Z 25012G22KT 17/15 A2996 RMK A01 T01720149  RH  086%=      5-min Rain = 0.02
KAI1 240506Z 28020G35KT 17/14 A2995 RMK A01 T01650137  RH  083%=      5-min Rain = 0.05
KAI1 240507Z 28043G51KT 15/13 A2995 RMK A01 T01520131  RH  087%=      5-min Rain = 0.11
KAI1 240508Z 28037G46KT 15/13 A2995 RMK A01 T01450134  RH  093%=      5-min Rain = 0.13
KAI1 240509Z 30036G52KT 14/13 A2996 RMK A01 T01390130  RH  094%=      5-min Rain = 0.21
KAI1 240510Z 33028KT 13/12 A2994 RMK A01 T01320124  RH  095%=      5-min Rain = 0.14
KAI1 240511Z 32027KT 13/13 A2993 RMK A01 T01300125  RH  097%=      5-min Rain = 0.08
KAI1 240512Z 31026KT 13/12 A2993 RMK A01 T01250120  RH  097%=      5-min Rain = 0.07
KAI1 240513Z 31031KT 12/11 A2994 RMK A01 T01190113  RH  096%=      5-min Rain = 0.04
KAI1 240514Z 31026KT 12/11 A2994 RMK A01 T01160111  RH  097%=      5-min Rain = 0.03
KAI1 240515Z 32026G32KT 12/11 A2994 RMK A01 T01150112  RH  098%=      5-min Rain = 0.02
KAI1 240516Z 33029G34KT 12/12 A2994 RMK A01 T01180115  RH  098%=      5-min Rain = 0.01
KAI1 240517Z 34025G32KT 13/12 A2995 RMK A01 T01250123  RH  099%=      5-min Rain = 0.01
KAI1 240518Z 33020G26KT 13/13 A2997 RMK A01 T01280125  RH  098%=      5-min Rain = 0.02
KAI1 240519Z 32012G17KT 13/12 A2999 RMK A01 T01330124  RH  094%=      5-min Rain = 0.01
KAI1 240520Z 29009KT 14/12 A30 RMK A01 T01350119  RH  090%=      5-min Rain = 0.01
KAI1 240521Z 30007KT 14/12 A3001 RMK A01 T01350115  RH  088%=      5-min Rain = 0.01
KAI1 240522Z 32008KT 14/12 A3001 RMK A01 T01360115  RH  087%=      5-min Rain = 0
KAI1 240523Z 34009KT 14/12 A30 RMK A01 T01370116  RH  087%=      5-min Rain = 0
KAI1 240524Z 35011KT 14/12 A2999 RMK A01 T01370117  RH  088%=      5-min Rain = 0
KAI1 240525Z 00013KT 14/12 A2998 RMK A01 T01380116  RH  087%=      5-min Rain = 0
KAI1 240526Z 01014KT 14/12 A2997 RMK A01 T01400115  RH  085%=      5-min Rain = 0
KAI1 240527Z 01014KT 14/11 A2997 RMK A01 T01420114  RH  083%=      5-min Rain = 0
KAI1 240528Z 01013KT 15/11 A2996 RMK A01 T01450112  RH  081%=      5-min Rain = 0
KAI1 240529Z 01013KT 15/11 A2997 RMK A01 T01460112  RH  080%=      5-min Rain = 0
KAI1 240530Z 01011KT 15/11 A2997 RMK A01 T01470112  RH  080%=      5-min Rain = 0.01
KAI1 240531Z 00009KT 15/11 A2997 RMK A01 T01470113  RH  080%=      5-min Rain = 0
KAI1 240532Z 00008KT 15/11 A2998 RMK A01 T01470114  RH  080%=      5-min Rain = 0
KAI1 240533Z 00008KT 15/11 A2997 RMK A01 T01480114  RH  080%=      5-min Rain = 0
KAI1 240534Z 00008KT 15/11 A2997 RMK A01 T01480113  RH  079%=      5-min Rain = 0
KAI1 240535Z 01009KT 15/11 A2997 RMK A01 T01490113  RH  079%=      5-min Rain = 0
KAI1 240536Z 00009KT 15/11 A2997 RMK A01 T01500113  RH  079%=      5-min Rain = 0
KAI1 240537Z 36009KT 15/11 A2997 RMK A01 T01510113  RH  078%=      5-min Rain = 0
KAI1 240538Z 35007KT 15/11 A2996 RMK A01 T01530114  RH  077%=      5-min Rain = 0
KAI1 240539Z 02007KT 16/12 A2996 RMK A01 T01560115  RH  077%=      5-min Rain = 0
KAI1 240540Z 04008KT 16/12 A2996 RMK A01 T01560115  RH  077%=      5-min Rain = 0
KAI1 240541Z 04005KT 15/12 A2996 RMK A01 T01540116  RH  078%=      5-min Rain = 0
KAI1 240542Z 03005KT 15/12 A2996 RMK A01 T01520116  RH  079%=      5-min Rain = 0
KAI1 240543Z 01005KT 15/12 A2996 RMK A01 T01530116  RH  079%=      5-min Rain = 0
KAI1 240544Z 01005KT 16/12 A2995 RMK A01 T01550117  RH  078%=      5-min Rain = 0
KAI1 240545Z 00006KT 16/12 A2995 RMK A01 T01560119  RH  078%=      5-min Rain = 0
KAI1 240546Z 36005KT 16/12 A2995 RMK A01 T01560119  RH  079%=      5-min Rain = 0
KAI1 240547Z 35005KT 16/12 A2995 RMK A01 T01560119  RH  079%=      5-min Rain = 0
KAI1 240548Z 33006KT 16/12 A2996 RMK A01 T01550121  RH  080%=      5-min Rain = 0
KAI1 240549Z 31006KT 16/12 A2996 RMK A01 T01550122  RH  081%=      5-min Rain = 0
KAI1 240550Z 29004KT 15/12 A2997 RMK A01 T01530122  RH  082%=      5-min Rain = 0
KAI1 240551Z 30004KT 15/12 A2997 RMK A01 T01520122  RH  082%=      5-min Rain = 0.01
KAI1 240552Z 28006KT 15/12 A2998 RMK A01 T01520122  RH  082%=      5-min Rain = 0
KAI1 240553Z 26006KT 15/12 A2998 RMK A01 T01540124  RH  083%=      5-min Rain = 0
KAI1 240554Z 26004KT 15/13 A2998 RMK A01 T01540125  RH  083%=      5-min Rain = 0
KAI1 240555Z 25006KT 15/13 A2998 RMK A01 T01520125  RH  083%=      5-min Rain = 0
KAI1 240556Z 24008KT 15/13 A2998 RMK A01 T01510125  RH  084%=      5-min Rain = 0
KAI1 240557Z 24006KT 15/12 A2998 RMK A01 T01510122  RH  083%=      5-min Rain = 0.01
KAI1 240558Z 24004KT 15/12 A2998 RMK A01 T01520120  RH  081%=      5-min Rain = 0
KAI1 240559Z 21002KT 15/12 A2998 RMK A01 T01540121  RH  081%=      5-min Rain = 0
KAI1 240600Z 21005KT 15/12 A2999 RMK A01 T01540120  RH  080%=      5-min Rain = 0
KAI1 240606Z 20005KT 15/12 A2999 RMK A01 T01540124  RH  082%=      5-min Rain = 0
KAI1 240607Z 21004KT 15/13 A2999 RMK A01 T01540126  RH  083%=      5-min Rain = 0
KAI1 240608Z 22006KT 15/13 A2999 RMK A01 T01530126  RH  084%=      5-min Rain = 0.01
KAI1 240609Z 22009KT 15/13 A2999 RMK A01 T01500127  RH  086%=      5-min Rain = 0.01
KAI1 240610Z 21009KT 15/13 A30 RMK A01 T01480126  RH  087%=      5-min Rain = 0
KAI1 240611Z 20010KT 15/13 A30 RMK A01 T01460127  RH  088%=      5-min Rain = 0
KAI1 240612Z 19009KT 15/13 A30 RMK A01 T01470125  RH  087%=      5-min Rain = 0
KAI1 240613Z 18009KT 15/13 A2999 RMK A01 T01490126  RH  086%=      5-min Rain = 0.01
KAI1 240614Z 18009KT 15/13 A2999 RMK A01 T01500128  RH  086%=      5-min Rain = 0
KAI1 240615Z 18008KT 15/13 A2999 RMK A01 T01510128  RH  086%=      5-min Rain = 0
KAI1 240616Z 19008KT 15/13 A2999 RMK A01 T01510129  RH  087%=      5-min Rain = 0
KAI1 240617Z 19007KT 15/13 A2999 RMK A01 T01510129  RH  087%=      5-min Rain = 0
KAI1 240618Z 19007KT 15/13 A2999 RMK A01 T01510130  RH  087%=      5-min Rain = 0
KAI1 240619Z 20007KT 15/13 A2999 RMK A01 T01510129  RH  087%=      5-min Rain = 0
KAI1 240620Z 21006KT 15/13 A2999 RMK A01 T01500130  RH  088%=      5-min Rain = 0
KAI1 240621Z 21006KT 15/13 A2999 RMK A01 T01490131  RH  089%=      5-min Rain = 0
KAI1 240622Z 20006KT 15/13 A2999 RMK A01 T01470130  RH  090%=      5-min Rain = 0
KAI1 240623Z 17006KT 15/13 A2999 RMK A01 T01460131  RH  091%=      5-min Rain = 0
KAI1 240624Z 17006KT 15/13 A2999 RMK A01 T01460133  RH  092%=      5-min Rain = 0
KAI1 240625Z 21005KT 15/13 A2999 RMK A01 T01460133  RH  092%=      5-min Rain = 0
KAI1 240626Z 23005KT 15/13 A2999 RMK A01 T01460132  RH  092%=      5-min Rain = 0
KAI1 240627Z 23004KT 15/13 A2999 RMK A01 T01460132  RH  091%=      5-min Rain = 0
KAI1 240628Z 23004KT 15/13 A2999 RMK A01 T01450131  RH  091%=      5-min Rain = 0
KAI1 240629Z 21004KT 15/13 A2999 RMK A01 T01450131  RH  091%=      5-min Rain = 0
KAI1 240630Z 19003KT 15/13 A2999 RMK A01 T01450131  RH  091%=      5-min Rain = 0
KAI1 240631Z 18003KT 15/13 A2999 RMK A01 T01450132  RH  092%=      5-min Rain = 0
KAI1 240632Z 18003KT 15/13 A2999 RMK A01 T01450133  RH  092%=      5-min Rain = 0
KAI1 240633Z 19002KT 15/13 A2999 RMK A01 T01450133  RH  092%=      5-min Rain = 0.01
KAI1 240634Z 19002KT 15/13 A2999 RMK A01 T01450133  RH  092%=      5-min Rain = 0
KAI1 240635Z 18003KT 15/13 A2999 RMK A01 T01450134  RH  093%=      5-min Rain = 0
KAI1 240636Z 17004KT 15/13 A2999 RMK A01 T01460134  RH  093%=      5-min Rain = 0.01
KAI1 240637Z 17006KT 15/13 A2999 RMK A01 T01460134  RH  093%=      5-min Rain = 0
KAI1 240638Z 18007KT 15/13 A2999 RMK A01 T01460133  RH  092%=      5-min Rain = 0
KAI1 240639Z 19007KT 15/13 A2999 RMK A01 T01480134  RH  091%=      5-min Rain = 0
KAI1 240640Z 20007KT 15/13 A2999 RMK A01 T01490134  RH  091%=      5-min Rain = 0
KAI1 240641Z 20007KT 15/13 A2999 RMK A01 T01490133  RH  090%=      5-min Rain = 0
KAI1 240642Z 20007KT 15/13 A2999 RMK A01 T01480134  RH  091%=      5-min Rain = 0
KAI1 240643Z 19008KT 15/13 A2999 RMK A01 T01480133  RH  091%=      5-min Rain = 0.01
KAI1 240644Z 19009KT 15/13 A2999 RMK A01 T01480134  RH  091%=      5-min Rain = 0
KAI1 240645Z 19008KT 15/13 A2999 RMK A01 T01490133  RH  090%=      5-min Rain = 0
KAI1 240646Z 19009KT 15/13 A2999 RMK A01 T01500133  RH  090%=      5-min Rain = 0.01
KAI1 240647Z 20009KT 15/13 A2999 RMK A01 T01500133  RH  089%=      5-min Rain = 0
KAI1 240648Z 19008KT 15/13 A2999 RMK A01 T01510133  RH  089%=      5-min Rain = 0
KAI1 240649Z 18008KT 15/13 A2999 RMK A01 T01510133  RH  089%=      5-min Rain = 0.01
KAI1 240650Z 18008KT 15/13 A2999 RMK A01 T01510133  RH  089%=      5-min Rain = 0.02
KAI1 240651Z 18007KT 15/14 A2999 RMK A01 T01520135  RH  089%=      5-min Rain = 0.02
KAI1 240652Z 17005KT 15/14 A2999 RMK A01 T01520136  RH  090%=      5-min Rain = 0.01
KAI1 240653Z 15004KT 15/14 A2998 RMK A01 T01500137  RH  092%=      5-min Rain = 0.02
KAI1 240654Z 11004KT 15/14 A2998 RMK A01 T01490136  RH  092%=      5-min Rain = 0.01
KAI1 240655Z 11005KT 15/14 A2997 RMK A01 T01490136  RH  092%=      5-min Rain = 0.01
KAI1 240656Z 12005KT 15/14 A2998 RMK A01 T01490137  RH  093%=      5-min Rain = 0.01
KAI1 240657Z 13006KT 15/14 A2998 RMK A01 T01480138  RH  094%=      5-min Rain = 0
KAI1 240658Z 14007KT 15/14 A2998 RMK A01 T01470138  RH  094%=      5-min Rain = 0.02
KAI1 240659Z 15007KT 15/14 A2998 RMK A01 T01470138  RH  094%=      5-min Rain = 0.02
KAI1 240700Z 16008KT 15/14 A2998 RMK A01 T01470139  RH  095%=      5-min Rain = 0.02
KAI1 240701Z 16007KT 15/14 A2998 RMK A01 T01460139  RH  095%=      5-min Rain = 0.01
KAI1 240702Z 17007KT 15/14 A2998 RMK A01 T01460139  RH  096%=      5-min Rain = 0.02
KAI1 240703Z 17006KT 15/14 A2998 RMK A01 T01460139  RH  095%=      5-min Rain = 0.01
KAI1 240704Z 16006KT 15/14 A2997 RMK A01 T01460139  RH  096%=      5-min Rain = 0.03
KAI1 240705Z 15007KT 15/14 A2997 RMK A01 T01460139  RH  096%=      5-min Rain = 0.02
KAI1 240706Z 15007KT 15/14 A2997 RMK A01 T01460139  RH  096%=      5-min Rain = 0.01
KAI1 240707Z 16008KT 15/14 A2998 RMK A01 T01460139  RH  096%=      5-min Rain = 0
KAI1 240708Z 17009KT 15/14 A2999 RMK A01 T01460139  RH  096%=      5-min Rain = 0.01
KAI1 240709Z 18011KT 15/14 A30 RMK A01 T01470140  RH  096%=      5-min Rain = 0
KAI1 240710Z 17010KT 15/14 A30 RMK A01 T01480140  RH  095%=      5-min Rain = 0
KAI1 240711Z 16009KT 15/14 A2999 RMK A01 T01490140  RH  095%=      5-min Rain = 0.01
KAI1 240712Z 15010KT 15/14 A2999 RMK A01 T01490142  RH  095%=      5-min Rain = 0.01
KAI1 240713Z 14011KT 15/14 A2998 RMK A01 T01490141  RH  095%=      5-min Rain = 0.02
KAI1 240714Z 14012KT 15/14 A2998 RMK A01 T01490141  RH  095%=      5-min Rain = 0.03
KAI1 240715Z 14013KT 15/14 A2998 RMK A01 T01480141  RH  095%=      5-min Rain = 0.01
KAI1 240716Z 15013KT 15/14 A2999 RMK A01 T01480141  RH  095%=      5-min Rain = 0.01
KAI1 240717Z 16014KT 15/14 A2999 RMK A01 T01480141  RH  096%=      5-min Rain = 0
KAI1 240718Z 16013KT 15/14 A30 RMK A01 T01480141  RH  096%=      5-min Rain = 0.01
KAI1 240719Z 16011KT 15/14 A2999 RMK A01 T01470141  RH  096%=      5-min Rain = 0
KAI1 240720Z 16010KT 15/14 A2999 RMK A01 T01470141  RH  096%=      5-min Rain = 0
KAI1 240721Z 15010KT 15/14 A2999 RMK A01 T01470141  RH  096%=      5-min Rain = 0.01
KAI1 240722Z 15009KT 15/14 A2999 RMK A01 T01470141  RH  096%=      5-min Rain = 0
KAI1 240723Z 15009KT 15/14 A2998 RMK A01 T01470141  RH  096%=      5-min Rain = 0
KAI1 240724Z 15009KT 15/14 A2998 RMK A01 T01470142  RH  096%=      5-min Rain = 0
KAI1 240725Z 16008KT 15/14 A2998 RMK A01 T01470142  RH  097%=      5-min Rain = 0.01
KAI1 240726Z 16007KT 15/14 A2998 RMK A01 T01480142  RH  097%=      5-min Rain = 0
KAI1 240727Z 17007KT 15/14 A2998 RMK A01 T01480142  RH  097%=      5-min Rain = 0
KAI1 240728Z 16007KT 15/14 A2998 RMK A01 T01480142  RH  096%=      5-min Rain = 0.01
KAI1 240729Z 16008KT 15/14 A2998 RMK A01 T01480142  RH  096%=      5-min Rain = 0
KAI1 240730Z 15009KT 15/14 A2998 RMK A01 T01480143  RH  097%=      5-min Rain = 0.01
KAI1 240731Z 15009KT 15/14 A2997 RMK A01 T01480143  RH  097%=      5-min Rain = 0
KAI1 240732Z 15009KT 15/14 A2997 RMK A01 T01470142  RH  097%=      5-min Rain = 0
KAI1 240733Z 15006KT 15/14 A2996 RMK A01 T01470142  RH  097%=      5-min Rain = 0.01
KAI1 240734Z 13006KT 15/14 A2995 RMK A01 T01470141  RH  097%=      5-min Rain = 0
KAI1 240735Z 13006KT 15/14 A2995 RMK A01 T01470141  RH  096%=      5-min Rain = 0
KAI1 240736Z 13007KT 15/14 A2995 RMK A01 T01470140  RH  096%=      5-min Rain = 0.01
KAI1 240737Z 13008KT 15/14 A2995 RMK A01 T01470140  RH  096%=      5-min Rain = 0
KAI1 240738Z 13009KT 15/14 A2996 RMK A01 T01470140  RH  095%=      5-min Rain = 0
KAI1 240739Z 14009KT 15/14 A2996 RMK A01 T01470140  RH  095%=      5-min Rain = 0
KAI1 240740Z 14008KT 15/14 A2996 RMK A01 T01470140  RH  095%=      5-min Rain = 0
KAI1 240741Z 14011KT 15/14 A2996 RMK A01 T01480140  RH  095%=      5-min Rain = 0
KAI1 240742Z 13013KT 15/14 A2996 RMK A01 T01480140  RH  095%=      5-min Rain = 0
KAI1 240743Z 14012KT 15/14 A2997 RMK A01 T01480140  RH  095%=      5-min Rain = 0
KAI1 240744Z 14013KT 15/14 A2998 RMK A01 T01490141  RH  095%=      5-min Rain = 0.01
KAI1 240745Z 14013KT 15/14 A2998 RMK A01 T01490141  RH  095%=      5-min Rain = 0
KAI1 240746Z 14013KT 15/14 A2998 RMK A01 T01500141  RH  094%=      5-min Rain = 0
KAI1 240747Z 14011KT 15/14 A2998 RMK A01 T01510142  RH  094%=      5-min Rain = 0
KAI1 240748Z 15010KT 15/14 A2998 RMK A01 T01520143  RH  094%=      5-min Rain = 0.01
KAI1 240749Z 15010KT 15/14 A2997 RMK A01 T01530144  RH  094%=      5-min Rain = 0.01
KAI1 240750Z 14010KT 15/15 A2997 RMK A01 T01540145  RH  094%=      5-min Rain = 0.02
KAI1 240751Z 14012KT 15/15 A2997 RMK A01 T01540145  RH  094%=      5-min Rain = 0
KAI1 240752Z 14011KT 15/14 A2997 RMK A01 T01530144  RH  094%=      5-min Rain = 0.01
KAI1 240753Z 14013KT 15/14 A2997 RMK A01 T01540144  RH  094%=      5-min Rain = 0.02
KAI1 240754Z 14013KT 15/14 A2997 RMK A01 T01540144  RH  094%=      5-min Rain = 0.01
KAI1 240755Z 14012KT 15/14 A2997 RMK A01 T01540144  RH  094%=      5-min Rain = 0.02
KAI1 240756Z 14014KT 15/14 A2997 RMK A01 T01540144  RH  094%=      5-min Rain = 0.01
KAI1 240757Z 14016KT 16/15 A2997 RMK A01 T01550145  RH  094%=      5-min Rain = 0.02
KAI1 240758Z 13014KT 16/15 A2997 RMK A01 T01560145  RH  093%=      5-min Rain = 0.01
KAI1 240759Z 13015KT 16/14 A2996 RMK A01 T01560144  RH  093%=      5-min Rain = 0.02
KAI1 240800Z 14013G18KT 16/14 A2996 RMK A01 T01560144  RH  093%=      5-min Rain = 0.01
KAI1 240801Z 15012KT 16/15 A2996 RMK A01 T01570145  RH  093%=      5-min Rain = 0.01
KAI1 240802Z 15011KT 16/15 A2996 RMK A01 T01580145  RH  092%=      5-min Rain = 0.01
KAI1 240803Z 15013KT 16/15 A2995 RMK A01 T01590145  RH  091%=      5-min Rain = 0
KAI1 240804Z 15013KT 16/15 A2995 RMK A01 T01600145  RH  091%=      5-min Rain = 0
KAI1 240805Z 15014KT 16/15 A2995 RMK A01 T01600145  RH  091%=      5-min Rain = 0
KAI1 240806Z 15014KT 16/15 A2995 RMK A01 T01620146  RH  090%=      5-min Rain = 0
KAI1 240807Z 15014KT 16/15 A2995 RMK A01 T01620145  RH  090%=      5-min Rain = 0
KAI1 240808Z 15012KT 16/15 A2995 RMK A01 T01630146  RH  090%=      5-min Rain = 0
KAI1 240809Z 15013KT 16/15 A2994 RMK A01 T01630146  RH  090%=      5-min Rain = 0.01
KAI1 240810Z 14013KT 16/15 A2994 RMK A01 T01630145  RH  089%=      5-min Rain = 0
KAI1 240811Z 14012KT 16/15 A2994 RMK A01 T01630145  RH  089%=      5-min Rain = 0
KAI1 240812Z 14015KT 16/15 A2994 RMK A01 T01630145  RH  089%=      5-min Rain = 0
KAI1 240813Z 14016KT 16/14 A2994 RMK A01 T01630144  RH  089%=      5-min Rain = 0
KAI1 240814Z 13014KT 16/14 A2994 RMK A01 T01640144  RH  088%=      5-min Rain = 0
KAI1 240815Z 13012KT 16/15 A2994 RMK A01 T01640145  RH  089%=      5-min Rain = 0
KAI1 240816Z 13012KT 16/15 A2994 RMK A01 T01630145  RH  089%=      5-min Rain = 0
KAI1 240817Z 14013KT 16/15 A2994 RMK A01 T01620145  RH  090%=      5-min Rain = 0
KAI1 240818Z 14014KT 16/15 A2994 RMK A01 T01620146  RH  090%=      5-min Rain = 0
KAI1 240819Z 15016KT 16/15 A2995 RMK A01 T01620146  RH  091%=      5-min Rain = 0
KAI1 240820Z 15020KT 16/15 A2995 RMK A01 T01620148  RH  091%=      5-min Rain = 0
KAI1 240821Z 15025G31KT 16/15 A2994 RMK A01 T01620150  RH  093%=      5-min Rain = 0.05
KAI1 240822Z 15025KT 16/15 A2994 RMK A01 T01600152  RH  095%=      5-min Rain = 0.08
KAI1 240823Z 15026G31KT 16/15 A2993 RMK A01 T01590152  RH  095%=      5-min Rain = 0.01
KAI1 240824Z 14023KT 16/15 A2994 RMK A01 T01620152  RH  094%=      5-min Rain = 0
KAI1 240825Z 13022KT 16/15 A2993 RMK A01 T01620151  RH  093%=      5-min Rain = 0
KAI1 240826Z 13019KT 16/15 A2994 RMK A01 T01630149  RH  091%=      5-min Rain = 0
KAI1 240827Z 13014KT 16/15 A2994 RMK A01 T01630148  RH  091%=      5-min Rain = 0
KAI1 240828Z 13015KT 16/15 A2994 RMK A01 T01620149  RH  091%=      5-min Rain = 0
KAI1 240829Z 14013KT 16/15 A2993 RMK A01 T01630149  RH  092%=      5-min Rain = 0
KAI1 240830Z 15011KT 16/15 A2993 RMK A01 T01630151  RH  093%=      5-min Rain = 0
KAI1 240831Z 16011KT 16/15 A2993 RMK A01 T01630152  RH  093%=      5-min Rain = 0
KAI1 240832Z 16011KT 16/15 A2994 RMK A01 T01630152  RH  093%=      5-min Rain = 0
KAI1 240833Z 17013KT 16/15 A2994 RMK A01 T01640153  RH  093%=      5-min Rain = 0
KAI1 240834Z 18014KT 17/15 A2995 RMK A01 T01650153  RH  092%=      5-min Rain = 0.01
KAI1 240835Z 18012KT 17/15 A2995 RMK A01 T01650153  RH  092%=      5-min Rain = 0.01
KAI1 240836Z 18011KT 16/15 A2995 RMK A01 T01640152  RH  092%=      5-min Rain = 0
KAI1 240837Z 18011KT 16/15 A2994 RMK A01 T01630152  RH  093%=      5-min Rain = 0
KAI1 240838Z 17010KT 16/15 A2994 RMK A01 T01630152  RH  093%=      5-min Rain = 0
KAI1 240839Z 16011KT 16/15 A2994 RMK A01 T01620152  RH  094%=      5-min Rain = 0
KAI1 240840Z 15011KT 16/15 A2994 RMK A01 T01620152  RH  094%=      5-min Rain = 0
KAI1 240841Z 15013KT 16/15 A2994 RMK A01 T01610152  RH  094%=      5-min Rain = 0
KAI1 240842Z 15015KT 16/15 A2995 RMK A01 T01600151  RH  094%=      5-min Rain = 0
KAI1 240843Z 15015KT 16/15 A2995 RMK A01 T01590150  RH  094%=      5-min Rain = 0.01
KAI1 240844Z 15015KT 16/15 A2995 RMK A01 T01590149  RH  094%=      5-min Rain = 0
KAI1 240845Z 15013KT 16/15 A2995 RMK A01 T01590148  RH  093%=      5-min Rain = 0
KAI1 240846Z 15015KT 16/15 A2995 RMK A01 T01580148  RH  093%=      5-min Rain = 0
KAI1 240847Z 16016KT 16/15 A2995 RMK A01 T01580149  RH  094%=      5-min Rain = 0
KAI1 240848Z 16015KT 16/15 A2995 RMK A01 T01580149  RH  095%=      5-min Rain = 0
KAI1 240849Z 16017KT 16/15 A2994 RMK A01 T01590151  RH  095%=      5-min Rain = 0
KAI1 240850Z 16017KT 16/15 A2994 RMK A01 T01600152  RH  095%=      5-min Rain = 0
KAI1 240851Z 16015KT 16/15 A2993 RMK A01 T01610153  RH  095%=      5-min Rain = 0
KAI1 240852Z 16015KT 16/15 A2993 RMK A01 T01610153  RH  095%=      5-min Rain = 0
KAI1 240853Z 16014KT 16/15 A2992 RMK A01 T01610154  RH  096%=      5-min Rain = 0
KAI1 240854Z 16014KT 16/16 A2992 RMK A01 T01610155  RH  096%=      5-min Rain = 0.01
KAI1 240855Z 16015KT 16/16 A2992 RMK A01 T01620156  RH  097%=      5-min Rain = 0
KAI1 240856Z 16014KT 16/16 A2993 RMK A01 T01620157  RH  097%=      5-min Rain = 0
KAI1 240857Z 16016KT 16/16 A2993 RMK A01 T01620157  RH  097%=      5-min Rain = 0
KAI1 240858Z 16016KT 16/16 A2993 RMK A01 T01620157  RH  097%=      5-min Rain = 0
KAI1 240859Z 17015KT 16/16 A2994 RMK A01 T01630157  RH  097%=      5-min Rain = 0
KAI1 240900Z 17014KT 16/16 A2994 RMK A01 T01640157  RH  096%=      5-min Rain = 0
KAI1 240901Z 17012KT 16/16 A2994 RMK A01 T01640157  RH  096%=      5-min Rain = 0
KAI1 240902Z 17011KT 17/16 A2995 RMK A01 T01650157  RH  095%=      5-min Rain = 0
KAI1 240903Z 18011KT 17/16 A2995 RMK A01 T01650157  RH  095%=      5-min Rain = 0
KAI1 240904Z 17012KT 17/16 A2995 RMK A01 T01650157  RH  095%=      5-min Rain = 0
KAI1 240905Z 17016KT 17/16 A2995 RMK A01 T01660157  RH  094%=      5-min Rain = 0
KAI1 240906Z 17016KT 17/16 A2995 RMK A01 T01680158  RH  094%=      5-min Rain = 0
KAI1 240907Z 17015KT 17/16 A2996 RMK A01 T01690159  RH  094%=      5-min Rain = 0
KAI1 240908Z 17013KT 17/16 A2996 RMK A01 T01690159  RH  094%=      5-min Rain = 0
KAI1 240909Z 16012KT 17/16 A2996 RMK A01 T01690160  RH  094%=      5-min Rain = 0
KAI1 240910Z 16012KT 17/16 A2996 RMK A01 T01690160  RH  095%=      5-min Rain = 0
KAI1 240911Z 16013KT 17/16 A2996 RMK A01 T01680160  RH  095%=      5-min Rain = 0.01
KAI1 240912Z 17015KT 17/16 A2995 RMK A01 T01680161  RH  096%=      5-min Rain = 0
KAI1 240913Z 17015KT 17/16 A2995 RMK A01 T01680161  RH  096%=      5-min Rain = 0
KAI1 240914Z 18015KT 17/16 A2995 RMK A01 T01680161  RH  096%=      5-min Rain = 0.01
KAI1 240915Z 17013KT 17/16 A2995 RMK A01 T01680162  RH  096%=      5-min Rain = 0
KAI1 240916Z 17014KT 17/16 A2995 RMK A01 T01680161  RH  096%=      5-min Rain = 0
KAI1 240917Z 18014KT 17/16 A2996 RMK A01 T01690161  RH  095%=      5-min Rain = 0
KAI1 240918Z 18014KT 17/16 A2996 RMK A01 T01690161  RH  095%=      5-min Rain = 0.01
KAI1 240919Z 18015KT 17/16 A2996 RMK A01 T01690161  RH  095%=      5-min Rain = 0
KAI1 240920Z 18015KT 17/16 A2996 RMK A01 T01690161  RH  095%=      5-min Rain = 0
KAI1 240921Z 19015KT 17/16 A2996 RMK A01 T01690161  RH  095%=      5-min Rain = 0.01
KAI1 240922Z 18014KT 17/16 A2995 RMK A01 T01680160  RH  095%=      5-min Rain = 0
KAI1 240923Z 18015KT 17/16 A2994 RMK A01 T01680159  RH  095%=      5-min Rain = 0.01
KAI1 240924Z 18017KT 17/16 A2994 RMK A01 T01680159  RH  094%=      5-min Rain = 0.01
KAI1 240925Z 17016KT 17/16 A2994 RMK A01 T01680157  RH  094%=      5-min Rain = 0
KAI1 240926Z 17017KT 17/16 A2994 RMK A01 T01670157  RH  094%=      5-min Rain = 0.01
KAI1 240927Z 17016KT 17/16 A2994 RMK A01 T01670157  RH  094%=      5-min Rain = 0.01
KAI1 240928Z 16017KT 17/16 A2994 RMK A01 T01660157  RH  095%=      5-min Rain = 0
KAI1 240929Z 16017KT 17/16 A2994 RMK A01 T01650157  RH  095%=      5-min Rain = 0.01
KAI1 240930Z 16017KT 17/16 A2994 RMK A01 T01650157  RH  095%=      5-min Rain = 0
KAI1 240931Z 17015KT 16/16 A2995 RMK A01 T01640156  RH  095%=      5-min Rain = 0
KAI1 240932Z 18016KT 17/15 A2995 RMK A01 T01650154  RH  093%=      5-min Rain = 0
KAI1 240933Z 18015KT 17/15 A2996 RMK A01 T01650152  RH  092%=      5-min Rain = 0
KAI1 240934Z 18014KT 17/15 A2996 RMK A01 T01650152  RH  092%=      5-min Rain = 0
KAI1 240935Z 18014KT 17/15 A2997 RMK A01 T01660151  RH  091%=      5-min Rain = 0
KAI1 240936Z 17014KT 17/15 A2997 RMK A01 T01660151  RH  091%=      5-min Rain = 0
KAI1 240937Z 18011KT 17/15 A2997 RMK A01 T01660152  RH  091%=      5-min Rain = 0
KAI1 240938Z 17011KT 17/15 A2996 RMK A01 T01660152  RH  091%=      5-min Rain = 0.01
KAI1 240939Z 17009KT 17/15 A2996 RMK A01 T01660153  RH  092%=      5-min Rain = 0
KAI1 240940Z 17009KT 17/16 A2995 RMK A01 T01650155  RH  094%=      5-min Rain = 0.01
KAI1 240941Z 18010KT 17/16 A2995 RMK A01 T01650156  RH  095%=      5-min Rain = 0
KAI1 240942Z 18010KT 16/16 A2995 RMK A01 T01640155  RH  094%=      5-min Rain = 0
KAI1 240943Z 19010KT 17/15 A2996 RMK A01 T01650154  RH  093%=      5-min Rain = 0
KAI1 240944Z 21010KT 17/15 A2996 RMK A01 T01650154  RH  093%=      5-min Rain = 0.01
KAI1 240945Z 19009KT 17/16 A2997 RMK A01 T01650155  RH  094%=      5-min Rain = 0.01
KAI1 240946Z 18011KT 16/16 A2997 RMK A01 T01640155  RH  094%=      5-min Rain = 0.01
KAI1 240947Z 19013KT 16/16 A2998 RMK A01 T01640155  RH  095%=      5-min Rain = 0
KAI1 240948Z 20014G19KT 16/16 A2999 RMK A01 T01640156  RH  095%=      5-min Rain = 0.01
KAI1 240949Z 20016KT 16/16 A2999 RMK A01 T01640156  RH  095%=      5-min Rain = 0
KAI1 240950Z 20016KT 16/16 A30 RMK A01 T01640155  RH  095%=      5-min Rain = 0.01
KAI1 240951Z 19014KT 16/16 A30 RMK A01 T01630155  RH  095%=      5-min Rain = 0
KAI1 240952Z 19014KT 16/16 A2999 RMK A01 T01640155  RH  095%=      5-min Rain = 0
KAI1 240953Z 18014KT 16/16 A2999 RMK A01 T01640156  RH  095%=      5-min Rain = 0.01
KAI1 240954Z 18013KT 16/16 A2998 RMK A01 T01640156  RH  095%=      5-min Rain = 0
KAI1 240955Z 17012KT 16/16 A2998 RMK A01 T01640156  RH  095%=      5-min Rain = 0
KAI1 240956Z 17012KT 16/16 A2997 RMK A01 T01630156  RH  095%=      5-min Rain = 0.01
KAI1 240957Z 17011KT 16/16 A2997 RMK A01 T01630156  RH  095%=      5-min Rain = 0
KAI1 240958Z 17011KT 16/16 A2997 RMK A01 T01630155  RH  095%=      5-min Rain = 0.01
KAI1 240959Z 17011KT 16/15 A2997 RMK A01 T01630154  RH  094%=      5-min Rain = 0
KAI1 241000Z 17012KT 16/15 A2997 RMK A01 T01630154  RH  094%=      5-min Rain = 0.01
KAI1 241001Z 17012KT 16/15 A2997 RMK A01 T01630153  RH  094%=      5-min Rain = 0
KAI1 241002Z 17012KT 16/15 A2997 RMK A01 T01630152  RH  093%=      5-min Rain = 0.01
KAI1 241003Z 17013KT 16/15 A2997 RMK A01 T01630152  RH  093%=      5-min Rain = 0
KAI1 241004Z 16014KT 16/15 A2997 RMK A01 T01630151  RH  093%=      5-min Rain = 0
KAI1 241005Z 16014KT 16/15 A2997 RMK A01 T01630151  RH  093%=      5-min Rain = 0
KAI1 241006Z 15013KT 16/15 A2997 RMK A01 T01630152  RH  093%=      5-min Rain = 0
KAI1 241007Z 15014KT 16/15 A2997 RMK A01 T01620152  RH  094%=      5-min Rain = 0
KAI1 241008Z 15015KT 16/15 A2997 RMK A01 T01620153  RH  094%=      5-min Rain = 0
KAI1 241009Z 15016KT 16/15 A2997 RMK A01 T01620154  RH  095%=      5-min Rain = 0
KAI1 241010Z 15016KT 16/15 A2997 RMK A01 T01620154  RH  095%=      5-min Rain = 0
KAI1 241011Z 16015KT 16/15 A2997 RMK A01 T01620154  RH  095%=      5-min Rain = 0
KAI1 241012Z 16014KT 16/15 A2997 RMK A01 T01620152  RH  094%=      5-min Rain = 0
KAI1 241013Z 16016KT 16/15 A2998 RMK A01 T01630152  RH  093%=      5-min Rain = 0
KAI1 241014Z 16014KT 16/15 A2998 RMK A01 T01630152  RH  093%=      5-min Rain = 0
KAI1 241015Z 16013KT 16/15 A2998 RMK A01 T01640153  RH  094%=      5-min Rain = 0
KAI1 241016Z 16013KT 16/15 A2998 RMK A01 T01630154  RH  094%=      5-min Rain = 0
KAI1 241017Z 15013KT 16/15 A2998 RMK A01 T01640154  RH  094%=      5-min Rain = 0
KAI1 241018Z 15013KT 16/16 A2998 RMK A01 T01640155  RH  094%=      5-min Rain = 0
KAI1 241019Z 15012KT 16/16 A2997 RMK A01 T01640155  RH  095%=      5-min Rain = 0
KAI1 241020Z 15009KT 16/16 A2997 RMK A01 T01630155  RH  094%=      5-min Rain = 0
KAI1 241021Z 15008KT 16/16 A2997 RMK A01 T01640155  RH  094%=      5-min Rain = 0
KAI1 241022Z 16007KT 16/16 A2997 RMK A01 T01640155  RH  094%=      5-min Rain = 0
KAI1 241023Z 15008KT 16/16 A2997 RMK A01 T01640155  RH  094%=      5-min Rain = 0
KAI1 241024Z 15010KT 16/16 A2997 RMK A01 T01640155  RH  094%=      5-min Rain = 0
KAI1 241025Z 15012KT 16/16 A2997 RMK A01 T01640155  RH  094%=      5-min Rain = 0
KAI1 241026Z 15012KT 17/16 A2997 RMK A01 T01650155  RH  094%=      5-min Rain = 0
KAI1 241027Z 15012KT 17/16 A2997 RMK A01 T01650155  RH  094%=      5-min Rain = 0
KAI1 241028Z 15012KT 17/16 A2997 RMK A01 T01660155  RH  094%=      5-min Rain = 0
KAI1 241029Z 14012KT 17/16 A2997 RMK A01 T01660155  RH  093%=      5-min Rain = 0
KAI1 241030Z 14011KT 17/16 A2997 RMK A01 T01660155  RH  093%=      5-min Rain = 0
KAI1 241031Z 14010KT 17/16 A2997 RMK A01 T01670155  RH  093%=      5-min Rain = 0
KAI1 241032Z 13009KT 17/16 A2997 RMK A01 T01670155  RH  093%=      5-min Rain = 0
KAI1 241033Z 13010KT 17/16 A2997 RMK A01 T01670155  RH  093%=      5-min Rain = 0
KAI1 241034Z 13008KT 17/16 A2997 RMK A01 T01680156  RH  093%=      5-min Rain = 0
KAI1 241035Z 13008KT 17/16 A2997 RMK A01 T01680156  RH  093%=      5-min Rain = 0
KAI1 241036Z 13008KT 17/16 A2997 RMK A01 T01680156  RH  093%=      5-min Rain = 0
KAI1 241037Z 12007KT 17/16 A2997 RMK A01 T01680156  RH  093%=      5-min Rain = 0
KAI1 241038Z 13008KT 17/16 A2997 RMK A01 T01680156  RH  093%=      5-min Rain = 0
KAI1 241039Z 13008KT 17/16 A2997 RMK A01 T01680155  RH  093%=      5-min Rain = 0
KAI1 241040Z 13009KT 17/16 A2997 RMK A01 T01680155  RH  092%=      5-min Rain = 0
KAI1 241041Z 14010KT 17/16 A2997 RMK A01 T01680155  RH  092%=      5-min Rain = 0
KAI1 241042Z 13010KT 17/15 A2997 RMK A01 T01680154  RH  092%=      5-min Rain = 0
KAI1 241043Z 13010KT 17/15 A2997 RMK A01 T01680154  RH  092%=      5-min Rain = 0
KAI1 241044Z 13009KT 17/15 A2997 RMK A01 T01680154  RH  092%=      5-min Rain = 0
KAI1 241045Z 13009KT 17/16 A2997 RMK A01 T01680155  RH  092%=      5-min Rain = 0
KAI1 241046Z 13008KT 17/16 A2997 RMK A01 T01670155  RH  092%=      5-min Rain = 0
KAI1 241047Z 13008KT 17/16 A2997 RMK A01 T01670155  RH  092%=      5-min Rain = 0
KAI1 241048Z 13008KT 17/16 A2997 RMK A01 T01670155  RH  092%=      5-min Rain = 0
KAI1 241049Z 13008KT 17/16 A2997 RMK A01 T01670155  RH  093%=      5-min Rain = 0
KAI1 241050Z 13008KT 17/16 A2997 RMK A01 T01670155  RH  093%=      5-min Rain = 0
KAI1 241051Z 13008KT 17/16 A2997 RMK A01 T01670155  RH  093%=      5-min Rain = 0
KAI1 241052Z 13008KT 17/16 A2997 RMK A01 T01670155  RH  093%=      5-min Rain = 0
KAI1 241053Z 13009KT 17/16 A2997 RMK A01 T01670155  RH  093%=      5-min Rain = 0
KAI1 241054Z 13009KT 17/16 A2997 RMK A01 T01670155  RH  092%=      5-min Rain = 0
KAI1 241055Z 13010KT 17/16 A2997 RMK A01 T01680155  RH  092%=      5-min Rain = 0
KAI1 241056Z 13009KT 17/16 A2997 RMK A01 T01680155  RH  092%=      5-min Rain = 0
KAI1 241057Z 13008KT 17/16 A2997 RMK A01 T01680155  RH  092%=      5-min Rain = 0
KAI1 241058Z 13008KT 17/16 A2997 RMK A01 T01680155  RH  092%=      5-min Rain = 0
KAI1 241059Z 13007KT 17/16 A2997 RMK A01 T01680155  RH  092%=      5-min Rain = 0
KAI1 241100Z 13007KT 17/16 A2997 RMK A01 T01680155  RH  092%=      5-min Rain = 0
KAI1 241101Z 13007KT 17/16 A2997 RMK A01 T01680155  RH  092%=      5-min Rain = 0
KAI1 241102Z 13007KT 17/16 A2997 RMK A01 T01680155  RH  092%=      5-min Rain = 0
KAI1 241103Z 13007KT 17/16 A2997 RMK A01 T01690156  RH  092%=      5-min Rain = 0
KAI1 241104Z 13007KT 17/16 A2997 RMK A01 T01690155  RH  092%=      5-min Rain = 0
KAI1 241105Z 12007KT 17/16 A2997 RMK A01 T01690155  RH  092%=      5-min Rain = 0
KAI1 241106Z 13007KT 17/16 A2997 RMK A01 T01680155  RH  092%=      5-min Rain = 0
KAI1 241107Z 13008KT 17/16 A2997 RMK A01 T01690155  RH  092%=      5-min Rain = 0
KAI1 241108Z 14009KT 17/16 A2997 RMK A01 T01690155  RH  091%=      5-min Rain = 0
KAI1 241109Z 13009KT 17/16 A2997 RMK A01 T01700155  RH  091%=      5-min Rain = 0
KAI1 241110Z 13009KT 17/16 A2997 RMK A01 T01710155  RH  090%=      5-min Rain = 0
KAI1 241111Z 13009KT 17/15 A2997 RMK A01 T01720154  RH  089%=      5-min Rain = 0
KAI1 241112Z 13009KT 17/15 A2997 RMK A01 T01730154  RH  089%=      5-min Rain = 0
KAI1 241113Z 13008KT 17/16 A2997 RMK A01 T01730155  RH  089%=      5-min Rain = 0
KAI1 241114Z 13008KT 17/16 A2997 RMK A01 T01730155  RH  089%=      5-min Rain = 0
KAI1 241115Z 13008KT 17/16 A2997 RMK A01 T01740155  RH  089%=      5-min Rain = 0
KAI1 241116Z 13008KT 17/16 A2997 RMK A01 T01730155  RH  089%=      5-min Rain = 0
KAI1 241117Z 12008KT 17/16 A2997 RMK A01 T01730155  RH  089%=      5-min Rain = 0.01
KAI1 241118Z 12009KT 17/16 A2997 RMK A01 T01730155  RH  089%=      5-min Rain = 0
KAI1 241119Z 13009KT 17/16 A2997 RMK A01 T01730155  RH  089%=      5-min Rain = 0
KAI1 241120Z 13009KT 17/15 A2997 RMK A01 T01730154  RH  089%=      5-min Rain = 0
KAI1 241121Z 13009KT 17/15 A2997 RMK A01 T01730153  RH  088%=      5-min Rain = 0
KAI1 241122Z 12008KT 17/15 A2997 RMK A01 T01740153  RH  087%=      5-min Rain = 0
KAI1 241123Z 13008KT 18/15 A2997 RMK A01 T01750153  RH  087%=      5-min Rain = 0
KAI1 241124Z 13008KT 18/15 A2997 RMK A01 T01750153  RH  087%=      5-min Rain = 0
KAI1 241125Z 13009KT 18/15 A2997 RMK A01 T01750154  RH  088%=      5-min Rain = 0
KAI1 241126Z 13009KT 17/15 A2997 RMK A01 T01740154  RH  088%=      5-min Rain = 0
KAI1 241127Z 13009KT 17/15 A2997 RMK A01 T01740153  RH  087%=      5-min Rain = 0
KAI1 241128Z 13008KT 18/15 A2997 RMK A01 T01750153  RH  087%=      5-min Rain = 0
KAI1 241129Z 13008KT 18/15 A2997 RMK A01 T01750152  RH  087%=      5-min Rain = 0
KAI1 241130Z 12008KT 18/15 A2997 RMK A01 T01750152  RH  087%=      5-min Rain = 0
KAI1 241131Z 12007KT 18/15 A2997 RMK A01 T01750153  RH  087%=      5-min Rain = 0
KAI1 241132Z 12007KT 18/15 A2997 RMK A01 T01750153  RH  087%=      5-min Rain = 0
KAI1 241133Z 12007KT 18/15 A2997 RMK A01 T01750153  RH  087%=      5-min Rain = 0
KAI1 241134Z 13007KT 17/15 A2997 RMK A01 T01740154  RH  088%=      5-min Rain = 0
KAI1 241135Z 13007KT 17/15 A2998 RMK A01 T01740154  RH  088%=      5-min Rain = 0
KAI1 241136Z 13007KT 17/15 A2998 RMK A01 T01740153  RH  088%=      5-min Rain = 0
KAI1 241137Z 12007KT 17/15 A2998 RMK A01 T01740153  RH  088%=      5-min Rain = 0
KAI1 241138Z 12007KT 17/15 A2998 RMK A01 T01740152  RH  087%=      5-min Rain = 0
KAI1 241139Z 12007KT 17/15 A2998 RMK A01 T01740153  RH  087%=      5-min Rain = 0
KAI1 241140Z 12007KT 17/15 A2998 RMK A01 T01740152  RH  087%=      5-min Rain = 0
KAI1 241141Z 13006KT 17/15 A2998 RMK A01 T01740152  RH  087%=      5-min Rain = 0
KAI1 241142Z 13007KT 17/15 A2998 RMK A01 T01740152  RH  087%=      5-min Rain = 0
KAI1 241143Z 13007KT 17/15 A2998 RMK A01 T01740152  RH  087%=      5-min Rain = 0
KAI1 241144Z 13006KT 17/15 A2998 RMK A01 T01740152  RH  087%=      5-min Rain = 0
KAI1 241145Z 13006KT 17/15 A2998 RMK A01 T01740151  RH  087%=      5-min Rain = 0
KAI1 241146Z 13006KT 17/15 A2998 RMK A01 T01740151  RH  087%=      5-min Rain = 0
KAI1 241147Z 13007KT 17/15 A2998 RMK A01 T01740152  RH  087%=      5-min Rain = 0
KAI1 241148Z 13006KT 17/15 A2998 RMK A01 T01740152  RH  087%=      5-min Rain = 0
KAI1 241149Z 13006KT 17/15 A2998 RMK A01 T01740152  RH  087%=      5-min Rain = 0
KAI1 241150Z 13006KT 17/15 A2998 RMK A01 T01740152  RH  087%=      5-min Rain = 0
KAI1 241151Z 13007KT 17/15 A2998 RMK A01 T01730152  RH  087%=      5-min Rain = 0
KAI1 241152Z 13007KT 17/15 A2998 RMK A01 T01730152  RH  088%=      5-min Rain = 0
KAI1 241153Z 13006KT 17/15 A2998 RMK A01 T01730153  RH  088%=      5-min Rain = 0
KAI1 241154Z 14006KT 17/15 A2998 RMK A01 T01730153  RH  088%=      5-min Rain = 0
KAI1 241155Z 14006KT 17/15 A2998 RMK A01 T01720154  RH  089%=      5-min Rain = 0
KAI1 241156Z 14006KT 17/16 A2998 RMK A01 T01720155  RH  089%=      5-min Rain = 0
KAI1 241157Z 14006KT 17/16 A2998 RMK A01 T01720155  RH  090%=      5-min Rain = 0
KAI1 241158Z 15005KT 17/16 A2998 RMK A01 T01720155  RH  090%=      5-min Rain = 0
KAI1 241159Z 14006KT 17/16 A2998 RMK A01 T01720155  RH  090%=      5-min Rain = 0
KAI1 241200Z 14006KT 17/16 A2998 RMK A01 T01720155  RH  090%=      5-min Rain = 0
KAI1 241201Z 14005KT 17/15 A2998 RMK A01 T01720154  RH  089%=      5-min Rain = 0
KAI1 241202Z 13005KT 17/15 A2998 RMK A01 T01720153  RH  089%=      5-min Rain = 0
KAI1 241203Z 13005KT 17/15 A2998 RMK A01 T01720152  RH  088%=      5-min Rain = 0
KAI1 241204Z 14005KT 17/15 A2998 RMK A01 T01730152  RH  088%=      5-min Rain = 0
KAI1 241205Z 13005KT 17/15 A2998 RMK A01 T01730153  RH  088%=      5-min Rain = 0
KAI1 241206Z 14006KT 17/15 A2999 RMK A01 T01730153  RH  088%=      5-min Rain = 0
KAI1 241207Z 14005KT 17/15 A2999 RMK A01 T01730153  RH  088%=      5-min Rain = 0
KAI1 241208Z 13005KT 17/16 A2999 RMK A01 T01730155  RH  089%=      5-min Rain = 0
KAI1 241209Z 13004KT 17/16 A2999 RMK A01 T01730155  RH  089%=      5-min Rain = 0
KAI1 241210Z 13004KT 17/16 A2999 RMK A01 T01730155  RH  089%=      5-min Rain = 0
KAI1 241211Z 13004KT 17/16 A2999 RMK A01 T01730156  RH  090%=      5-min Rain = 0
KAI1 241212Z 14004KT 17/16 A2999 RMK A01 T01720155  RH  090%=      5-min Rain = 0
KAI1 241213Z 14004KT 17/16 A2999 RMK A01 T01730156  RH  090%=      5-min Rain = 0
KAI1 241214Z 14004KT 17/16 A2999 RMK A01 T01720156  RH  090%=      5-min Rain = 0
KAI1 241215Z 14005KT 17/16 A2999 RMK A01 T01720155  RH  089%=      5-min Rain = 0
KAI1 241216Z 13005KT 17/16 A2999 RMK A01 T01720155  RH  089%=      5-min Rain = 0
KAI1 241217Z 13006KT 17/16 A2999 RMK A01 T01720155  RH  089%=      5-min Rain = 0
KAI1 241218Z 13006KT 17/16 A2999 RMK A01 T01720155  RH  089%=      5-min Rain = 0
KAI1 241219Z 12006KT 17/16 A2999 RMK A01 T01720155  RH  090%=      5-min Rain = 0
KAI1 241220Z 12007KT 17/16 A2999 RMK A01 T01720156  RH  090%=      5-min Rain = 0
KAI1 241221Z 12007KT 17/16 A2999 RMK A01 T01720156  RH  090%=      5-min Rain = 0
KAI1 241222Z 12007KT 17/16 A2999 RMK A01 T01720155  RH  090%=      5-min Rain = 0
KAI1 241223Z 12007KT 17/16 A2999 RMK A01 T01720155  RH  090%=      5-min Rain = 0
KAI1 241224Z 12007KT 17/16 A2999 RMK A01 T01720156  RH  090%=      5-min Rain = 0
KAI1 241225Z 12006KT 17/16 A2999 RMK A01 T01720156  RH  090%=      5-min Rain = 0
KAI1 241226Z 12006KT 17/16 A2999 RMK A01 T01720157  RH  091%=      5-min Rain = 0
KAI1 241227Z 12006KT 17/16 A2999 RMK A01 T01720157  RH  091%=      5-min Rain = 0
KAI1 241228Z 12006KT 17/16 A2999 RMK A01 T01720157  RH  091%=      5-min Rain = 0
KAI1 241229Z 13007KT 17/16 A2999 RMK A01 T01720157  RH  091%=      5-min Rain = 0
KAI1 241230Z 12006KT 17/16 A2999 RMK A01 T01720157  RH  091%=      5-min Rain = 0
KAI1 241231Z 12007KT 17/16 A2999 RMK A01 T01720158  RH  091%=      5-min Rain = 0
KAI1 241232Z 12006KT 17/16 A2999 RMK A01 T01720158  RH  092%=      5-min Rain = 0
KAI1 241233Z 12007KT 17/16 A2999 RMK A01 T01720158  RH  092%=      5-min Rain = 0
KAI1 241234Z 12007KT 17/16 A2999 RMK A01 T01720159  RH  092%=      5-min Rain = 0
KAI1 241235Z 12007KT 17/16 A2999 RMK A01 T01720158  RH  092%=      5-min Rain = 0
KAI1 241236Z 12007KT 17/16 A2999 RMK A01 T01730159  RH  092%=      5-min Rain = 0
KAI1 241237Z 12007KT 17/16 A2999 RMK A01 T01730158  RH  091%=      5-min Rain = 0
KAI1 241238Z 12007KT 17/16 A2999 RMK A01 T01730158  RH  091%=      5-min Rain = 0
KAI1 241239Z 12006KT 17/16 A2999 RMK A01 T01730158  RH  091%=      5-min Rain = 0
KAI1 241240Z 12006KT 17/16 A2999 RMK A01 T01730159  RH  091%=      5-min Rain = 0
KAI1 241241Z 12005KT 17/16 A2999 RMK A01 T01730160  RH  092%=      5-min Rain = 0
KAI1 241242Z 12006KT 17/16 A2999 RMK A01 T01730160  RH  092%=      5-min Rain = 0
KAI1 241243Z 12006KT 17/16 A2999 RMK A01 T01730159  RH  091%=      5-min Rain = 0
KAI1 241244Z 12006KT 17/16 A2999 RMK A01 T01740160  RH  091%=      5-min Rain = 0
KAI1 241245Z 12006KT 17/16 A2999 RMK A01 T01740160  RH  092%=      5-min Rain = 0
KAI1 241246Z 12007KT 17/16 A2999 RMK A01 T01740160  RH  092%=      5-min Rain = 0
KAI1 241247Z 12006KT 17/16 A2999 RMK A01 T01740160  RH  091%=      5-min Rain = 0
KAI1 241248Z 12007KT 17/16 A2999 RMK A01 T01740160  RH  091%=      5-min Rain = 0
KAI1 241249Z 12007KT 17/16 A2999 RMK A01 T01740160  RH  091%=      5-min Rain = 0
KAI1 241250Z 12007KT 18/16 A2999 RMK A01 T01750160  RH  091%=      5-min Rain = 0
KAI1 241251Z 12007KT 18/16 A2999 RMK A01 T01750159  RH  090%=      5-min Rain = 0
KAI1 241252Z 12007KT 18/16 A2999 RMK A01 T01760159  RH  090%=      5-min Rain = 0
KAI1 241253Z 12007KT 18/16 A2999 RMK A01 T01760160  RH  090%=      5-min Rain = 0
KAI1 241254Z 12007KT 18/16 A2999 RMK A01 T01760159  RH  090%=      5-min Rain = 0
KAI1 241255Z 12007KT 18/16 A2999 RMK A01 T01760159  RH  089%=      5-min Rain = 0
KAI1 241256Z 12007KT 18/16 A2999 RMK A01 T01760159  RH  089%=      5-min Rain = 0
KAI1 241257Z 12008KT 18/16 A2999 RMK A01 T01770159  RH  089%=      5-min Rain = 0
KAI1 241258Z 12008KT 18/16 A2999 RMK A01 T01780158  RH  089%=      5-min Rain = 0
KAI1 241259Z 12008KT 18/16 A2999 RMK A01 T01780158  RH  088%=      5-min Rain = 0
KAI1 241300Z 12008KT 18/16 A2999 RMK A01 T01780158  RH  088%=      5-min Rain = 0
KAI1 241301Z 12008KT 18/16 A2999 RMK A01 T01780158  RH  088%=      5-min Rain = 0
KAI1 241302Z 12009KT 18/16 A2999 RMK A01 T01780158  RH  088%=      5-min Rain = 0
KAI1 241303Z 12008KT 18/16 A2999 RMK A01 T01780158  RH  088%=      5-min Rain = 0
KAI1 241304Z 12008KT 18/16 A2999 RMK A01 T01780159  RH  089%=      5-min Rain = 0
KAI1 241305Z 12008KT 18/16 A2999 RMK A01 T01780159  RH  089%=      5-min Rain = 0
KAI1 241306Z 11008KT 18/16 A2999 RMK A01 T01780160  RH  089%=      5-min Rain = 0
KAI1 241307Z 11009KT 18/16 A2999 RMK A01 T01780159  RH  088%=      5-min Rain = 0
KAI1 241308Z 11008KT 18/16 A2999 RMK A01 T01790159  RH  088%=      5-min Rain = 0
KAI1 241309Z 11008KT 18/16 A2999 RMK A01 T01790159  RH  088%=      5-min Rain = 0
KAI1 241310Z 11008KT 18/16 A2999 RMK A01 T01800160  RH  088%=      5-min Rain = 0
KAI1 241311Z 11008KT 18/16 A2999 RMK A01 T01810161  RH  088%=      5-min Rain = 0
KAI1 241312Z 11008KT 18/16 A2999 RMK A01 T01810162  RH  088%=      5-min Rain = 0
KAI1 241313Z 12008KT 18/16 A2999 RMK A01 T01820162  RH  088%=      5-min Rain = 0
KAI1 241314Z 12008KT 18/16 A2999 RMK A01 T01820163  RH  089%=      5-min Rain = 0
KAI1 241315Z 11008KT 18/16 A2999 RMK A01 T01820161  RH  088%=      5-min Rain = 0
KAI1 241316Z 12008KT 18/16 A2999 RMK A01 T01820161  RH  087%=      5-min Rain = 0
KAI1 241317Z 11008KT 18/16 A30 RMK A01 T01830160  RH  086%=      5-min Rain = 0
KAI1 241318Z 12009KT 18/16 A30 RMK A01 T01830162  RH  087%=      5-min Rain = 0
KAI1 241319Z 11009KT 18/16 A30 RMK A01 T01830161  RH  087%=      5-min Rain = 0
KAI1 241320Z 11009KT 18/16 A30 RMK A01 T01840160  RH  086%=      5-min Rain = 0
KAI1 241321Z 11009KT 18/16 A2999 RMK A01 T01840159  RH  085%=      5-min Rain = 0
KAI1 241322Z 11009KT 19/16 A2999 RMK A01 T01850159  RH  085%=      5-min Rain = 0
KAI1 241323Z 11009KT 19/16 A2999 RMK A01 T01850160  RH  085%=      5-min Rain = 0
KAI1 241324Z 11009KT 19/16 A2999 RMK A01 T01850160  RH  086%=      5-min Rain = 0
KAI1 241325Z 11009KT 19/16 A2999 RMK A01 T01850162  RH  087%=      5-min Rain = 0
KAI1 241326Z 11008KT 19/16 A2999 RMK A01 T01850163  RH  087%=      5-min Rain = 0
KAI1 241327Z 11008KT 19/17 A2999 RMK A01 T01850165  RH  088%=      5-min Rain = 0
KAI1 241328Z 11008KT 19/17 A2999 RMK A01 T01850165  RH  088%=      5-min Rain = 0
KAI1 241329Z 11008KT 19/17 A2999 RMK A01 T01850165  RH  088%=      5-min Rain = 0
KAI1 241330Z 11010KT 19/17 A2999 RMK A01 T01860165  RH  087%=      5-min Rain = 0
KAI1 241331Z 11009KT 19/16 A2999 RMK A01 T01860163  RH  086%=      5-min Rain = 0
KAI1 241332Z 11010KT 19/16 A2999 RMK A01 T01860164  RH  087%=      5-min Rain = 0
KAI1 241333Z 11010KT 19/16 A30 RMK A01 T01870162  RH  086%=      5-min Rain = 0
KAI1 241334Z 11008KT 19/16 A30 RMK A01 T01870162  RH  086%=      5-min Rain = 0
KAI1 241335Z 11009KT 19/16 A30 RMK A01 T01860163  RH  086%=      5-min Rain = 0
KAI1 241336Z 11008KT 19/16 A30 RMK A01 T01860163  RH  086%=      5-min Rain = 0
KAI1 241337Z 12008KT 19/16 A30 RMK A01 T01860164  RH  087%=      5-min Rain = 0
KAI1 241338Z 12009KT 19/17 A30 RMK A01 T01860165  RH  087%=      5-min Rain = 0
KAI1 241339Z 12009KT 19/16 A30 RMK A01 T01860164  RH  087%=      5-min Rain = 0
KAI1 241340Z 11009KT 19/16 A2999 RMK A01 T01860163  RH  086%=      5-min Rain = 0
KAI1 241341Z 11008KT 19/16 A30 RMK A01 T01860164  RH  087%=      5-min Rain = 0
KAI1 241342Z 11008KT 19/16 A30 RMK A01 T01860164  RH  087%=      5-min Rain = 0
KAI1 241343Z 11008KT 19/17 A30 RMK A01 T01870165  RH  087%=      5-min Rain = 0
KAI1 241344Z 11008KT 19/17 A30 RMK A01 T01860166  RH  088%=      5-min Rain = 0
KAI1 241345Z 11009KT 19/17 A30 RMK A01 T01860165  RH  087%=      5-min Rain = 0
KAI1 241346Z 11009KT 19/17 A30 RMK A01 T01860165  RH  088%=      5-min Rain = 0
KAI1 241347Z 11008KT 19/17 A30 RMK A01 T01860166  RH  088%=      5-min Rain = 0
KAI1 241348Z 11009KT 19/17 A30 RMK A01 T01860166  RH  088%=      5-min Rain = 0
KAI1 241349Z 11008KT 19/17 A30 RMK A01 T01860165  RH  087%=      5-min Rain = 0
KAI1 241350Z 11009KT 19/17 A30 RMK A01 T01860165  RH  088%=      5-min Rain = 0
KAI1 241351Z 11010KT 19/17 A30 RMK A01 T01860165  RH  087%=      5-min Rain = 0
KAI1 241352Z 11010KT 19/17 A2999 RMK A01 T01860166  RH  088%=      5-min Rain = 0
KAI1 241353Z 11010KT 19/17 A2999 RMK A01 T01860166  RH  088%=      5-min Rain = 0
KAI1 241354Z 11009KT 19/17 A2999 RMK A01 T01860167  RH  089%=      5-min Rain = 0
KAI1 241355Z 11009KT 19/17 A2999 RMK A01 T01860167  RH  089%=      5-min Rain = 0
KAI1 241356Z 11010KT 19/17 A2999 RMK A01 T01860167  RH  089%=      5-min Rain = 0
KAI1 241357Z 11010KT 19/17 A2999 RMK A01 T01860167  RH  089%=      5-min Rain = 0
KAI1 241358Z 11009KT 19/17 A2999 RMK A01 T01860168  RH  089%=      5-min Rain = 0
KAI1 241359Z 11010KT 19/17 A30 RMK A01 T01870167  RH  088%=      5-min Rain = 0
KAI1 241400Z 11009KT 19/17 A30 RMK A01 T01870168  RH  089%=      5-min Rain = 0
KAI1 241401Z 11009KT 19/17 A30 RMK A01 T01870168  RH  089%=      5-min Rain = 0
KAI1 241402Z 11008KT 19/17 A30 RMK A01 T01870168  RH  089%=      5-min Rain = 0
KAI1 241403Z 11008KT 19/17 A30 RMK A01 T01880169  RH  089%=      5-min Rain = 0
KAI1 241404Z 11007KT 19/17 A30 RMK A01 T01880171  RH  090%=      5-min Rain = 0
KAI1 241405Z 11008KT 19/17 A30 RMK A01 T01880171  RH  090%=      5-min Rain = 0
KAI1 241406Z 11009KT 19/17 A30 RMK A01 T01880172  RH  090%=      5-min Rain = 0
KAI1 241407Z 11008KT 19/17 A30 RMK A01 T01890172  RH  090%=      5-min Rain = 0
KAI1 241408Z 11008KT 19/17 A30 RMK A01 T01890172  RH  090%=      5-min Rain = 0
KAI1 241409Z 11009KT 19/17 A30 RMK A01 T01890172  RH  090%=      5-min Rain = 0
KAI1 241410Z 11008KT 19/17 A30 RMK A01 T01890173  RH  090%=      5-min Rain = 0
KAI1 241411Z 11008KT 19/17 A30 RMK A01 T01900173  RH  090%=      5-min Rain = 0
KAI1 241412Z 11009KT 19/17 A30 RMK A01 T01900174  RH  090%=      5-min Rain = 0
KAI1 241413Z 11009KT 19/17 A30 RMK A01 T01900174  RH  091%=      5-min Rain = 0
KAI1 241414Z 11008KT 19/17 A30 RMK A01 T01900173  RH  090%=      5-min Rain = 0
KAI1 241415Z 11008KT 19/17 A30 RMK A01 T01900174  RH  091%=      5-min Rain = 0
KAI1 241416Z 11007KT 19/18 A30 RMK A01 T01900175  RH  091%=      5-min Rain = 0
KAI1 241417Z 12008KT 19/18 A30 RMK A01 T01900177  RH  092%=      5-min Rain = 0
KAI1 241418Z 12009KT 19/18 A30 RMK A01 T01890175  RH  091%=      5-min Rain = 0
KAI1 241419Z 12009KT 19/18 A30 RMK A01 T01890175  RH  091%=      5-min Rain = 0
KAI1 241420Z 12009KT 19/18 A30 RMK A01 T01890175  RH  092%=      5-min Rain = 0
KAI1 241421Z 12007KT 19/18 A30 RMK A01 T01890176  RH  092%=      5-min Rain = 0
KAI1 241422Z 12006KT 19/18 A3001 RMK A01 T01890177  RH  093%=      5-min Rain = 0
KAI1 241423Z 11005KT 19/18 A3001 RMK A01 T01890177  RH  093%=      5-min Rain = 0
KAI1 241424Z 11006KT 19/18 A3001 RMK A01 T01890178  RH  093%=      5-min Rain = 0
KAI1 241425Z 11004KT 19/18 A3001 RMK A01 T01890177  RH  093%=      5-min Rain = 0
KAI1 241426Z 11002KT 19/18 A3001 RMK A01 T01890177  RH  093%=      5-min Rain = 0
KAI1 241427Z 10002KT 19/18 A3001 RMK A01 T01880177  RH  093%=      5-min Rain = 0
KAI1 241428Z 05001KT 19/18 A3001 RMK A01 T01890178  RH  093%=      5-min Rain = 0
KAI1 241429Z 36002KT 19/18 A3001 RMK A01 T01880177  RH  093%=      5-min Rain = 0
KAI1 241430Z 35001KT 19/18 A3001 RMK A01 T01880177  RH  093%=      5-min Rain = 0
KAI1 241431Z 34003KT 19/18 A3001 RMK A01 T01880177  RH  093%=      5-min Rain = 0
KAI1 241432Z 35007KT 19/17 A3001 RMK A01 T01870170  RH  089%=      5-min Rain = 0
KAI1 241433Z 34005KT 18/16 A3001 RMK A01 T01840164  RH  088%=      5-min Rain = 0
KAI1 241434Z 34003KT 18/17 A3001 RMK A01 T01830165  RH  089%=      5-min Rain = 0
KAI1 241435Z 34005KT 18/16 A3001 RMK A01 T01810164  RH  090%=      5-min Rain = 0
KAI1 241436Z 34005KT 18/16 A3001 RMK A01 T01810164  RH  090%=      5-min Rain = 0
KAI1 241437Z 31004KT 18/16 A3001 RMK A01 T01800164  RH  091%=      5-min Rain = 0
KAI1 241438Z 32006KT 18/17 A3001 RMK A01 T01800165  RH  091%=      5-min Rain = 0
KAI1 241439Z 33006KT 18/16 A3001 RMK A01 T01790163  RH  090%=      5-min Rain = 0
KAI1 241440Z 35003KT 18/16 A3001 RMK A01 T01790162  RH  089%=      5-min Rain = 0
KAI1 241441Z 00003KT 18/16 A3001 RMK A01 T01790161  RH  089%=      5-min Rain = 0
KAI1 241442Z 33003KT 18/16 A3001 RMK A01 T01790162  RH  090%=      5-min Rain = 0
KAI1 241443Z 34003KT 18/16 A3001 RMK A01 T01790163  RH  090%=      5-min Rain = 0
KAI1 241444Z 35004KT 18/16 A3001 RMK A01 T01790164  RH  091%=      5-min Rain = 0
KAI1 241445Z 36004KT 18/16 A3001 RMK A01 T01790164  RH  091%=      5-min Rain = 0
KAI1 241446Z 00004KT 18/16 A3001 RMK A01 T01780164  RH  091%=      5-min Rain = 0
KAI1 241447Z 02004KT 18/17 A3001 RMK A01 T01780165  RH  092%=      5-min Rain = 0
KAI1 241448Z 02005KT 18/17 A30 RMK A01 T01780165  RH  092%=      5-min Rain = 0
KAI1 241449Z 03006KT 18/17 A30 RMK A01 T01780166  RH  092%=      5-min Rain = 0
KAI1 241450Z 02005KT 18/17 A30 RMK A01 T01780166  RH  092%=      5-min Rain = 0
KAI1 241451Z 01004KT 18/17 A30 RMK A01 T01790167  RH  093%=      5-min Rain = 0
KAI1 241452Z 00004KT 18/17 A30 RMK A01 T01790168  RH  093%=      5-min Rain = 0
KAI1 241453Z 00004KT 18/17 A30 RMK A01 T01790169  RH  094%=      5-min Rain = 0
KAI1 241454Z 34002KT 18/17 A30 RMK A01 T01800169  RH  094%=      5-min Rain = 0
KAI1 241455Z 01002KT 18/17 A3001 RMK A01 T01800170  RH  094%=      5-min Rain = 0
KAI1 241456Z 00003KT 18/17 A30 RMK A01 T01800170  RH  094%=      5-min Rain = 0
KAI1 241457Z 01003KT 18/17 A30 RMK A01 T01800170  RH  094%=      5-min Rain = 0
KAI1 241458Z 01003KT 18/17 A30 RMK A01 T01810171  RH  094%=      5-min Rain = 0
KAI1 241459Z 02003KT 18/17 A30 RMK A01 T01810171  RH  094%=      5-min Rain = 0
KAI1 241500Z 02004KT 18/17 A30 RMK A01 T01810171  RH  094%=      5-min Rain = 0
KAI1 241501Z 02004KT 18/17 A30 RMK A01 T01810171  RH  094%=      5-min Rain = 0
KAI1 241502Z 01004KT 18/17 A30 RMK A01 T01810171  RH  094%=      5-min Rain = 0
KAI1 241503Z 02004KT 18/17 A30 RMK A01 T01810172  RH  094%=      5-min Rain = 0
KAI1 241504Z 36004KT 18/17 A30 RMK A01 T01810172  RH  095%=      5-min Rain = 0
KAI1 241505Z 36003KT 18/17 A3001 RMK A01 T01810172  RH  095%=      5-min Rain = 0
KAI1 241506Z 35002KT 18/17 A3001 RMK A01 T01810173  RH  095%=      5-min Rain = 0
KAI1 241507Z 01002KT 18/17 A3001 RMK A01 T01810171  RH  094%=      5-min Rain = 0
KAI1 241508Z 01002KT 18/17 A3001 RMK A01 T01810171  RH  093%=      5-min Rain = 0
KAI1 241509Z 00002KT 18/17 A3001 RMK A01 T01820171  RH  094%=      5-min Rain = 0
KAI1 241510Z 00002KT 18/17 A3001 RMK A01 T01820171  RH  094%=      5-min Rain = 0
KAI1 241511Z 34002KT 18/17 A3001 RMK A01 T01810172  RH  094%=      5-min Rain = 0
KAI1 241512Z 22001KT 18/17 A3001 RMK A01 T01820173  RH  094%=      5-min Rain = 0
KAI1 241513Z 23002KT 18/18 A3001 RMK A01 T01830175  RH  095%=      5-min Rain = 0
KAI1 241514Z 32001KT 18/18 A3001 RMK A01 T01830176  RH  096%=      5-min Rain = 0
KAI1 241515Z 30004KT 18/18 A3001 RMK A01 T01840177  RH  096%=      5-min Rain = 0
KAI1 241516Z 29006KT 18/18 A3001 RMK A01 T01840176  RH  095%=      5-min Rain = 0
KAI1 241517Z 31006KT 18/17 A3001 RMK A01 T01830173  RH  094%=      5-min Rain = 0
KAI1 241518Z 31007KT 18/17 A3001 RMK A01 T01810170  RH  093%=      5-min Rain = 0
KAI1 241519Z 31005KT 18/17 A3001 RMK A01 T01800169  RH  093%=      5-min Rain = 0
KAI1 241520Z 32007KT 18/17 A3001 RMK A01 T01790169  RH  094%=      5-min Rain = 0
KAI1 241521Z 32006KT 18/17 A3001 RMK A01 T01780169  RH  094%=      5-min Rain = 0
KAI1 241522Z 33007KT 18/17 A3001 RMK A01 T01770169  RH  095%=      5-min Rain = 0
KAI1 241523Z 34007KT 18/17 A3001 RMK A01 T01770169  RH  095%=      5-min Rain = 0
KAI1 241524Z 33005KT 18/17 A3001 RMK A01 T01770168  RH  095%=      5-min Rain = 0
KAI1 241525Z 34004KT 18/17 A3001 RMK A01 T01770168  RH  095%=      5-min Rain = 0
KAI1 241526Z 00004KT 18/17 A3001 RMK A01 T01770169  RH  095%=      5-min Rain = 0
KAI1 241527Z 36003KT 18/17 A3001 RMK A01 T01770169  RH  095%=      5-min Rain = 0
KAI1 241528Z 36003KT 18/17 A3001 RMK A01 T01770170  RH  095%=      5-min Rain = 0
KAI1 241529Z 35003KT 18/17 A3001 RMK A01 T01780171  RH  096%=      5-min Rain = 0
KAI1 241530Z 35004KT 18/17 A3001 RMK A01 T01780171  RH  096%=      5-min Rain = 0
KAI1 241531Z 35004KT 18/17 A3001 RMK A01 T01780171  RH  095%=      5-min Rain = 0
KAI1 241532Z 34004KT 18/17 A3001 RMK A01 T01790172  RH  096%=      5-min Rain = 0
KAI1 241533Z 34003KT 18/17 A3001 RMK A01 T01800173  RH  096%=      5-min Rain = 0
KAI1 241534Z 33003KT 18/17 A3001 RMK A01 T01800173  RH  096%=      5-min Rain = 0
KAI1 241535Z 30003KT 18/17 A3001 RMK A01 T01800174  RH  096%=      5-min Rain = 0
KAI1 241536Z 31004KT 18/17 A3001 RMK A01 T01800173  RH  096%=      5-min Rain = 0
KAI1 241537Z 31004KT 18/17 A3001 RMK A01 T01800173  RH  095%=      5-min Rain = 0
KAI1 241538Z 32004KT 18/17 A3001 RMK A01 T01800173  RH  095%=      5-min Rain = 0
KAI1 241539Z 33005KT 18/17 A3001 RMK A01 T01800172  RH  095%=      5-min Rain = 0
KAI1 241540Z 34004KT 18/17 A3001 RMK A01 T01800172  RH  095%=      5-min Rain = 0
KAI1 241541Z 35004KT 18/17 A3001 RMK A01 T01800172  RH  095%=      5-min Rain = 0
KAI1 241542Z 34005KT 18/17 A3001 RMK A01 T01800172  RH  095%=      5-min Rain = 0
KAI1 241543Z 34005KT 18/17 A3001 RMK A01 T01800172  RH  095%=      5-min Rain = 0
KAI1 241544Z 34006KT 18/17 A3001 RMK A01 T01800172  RH  095%=      5-min Rain = 0
KAI1 241545Z 34006KT 18/17 A3001 RMK A01 T01800172  RH  095%=      5-min Rain = 0
KAI1 241546Z 33005KT 18/17 A3001 RMK A01 T01800171  RH  095%=      5-min Rain = 0
KAI1 241547Z 33005KT 18/17 A3001 RMK A01 T01800171  RH  095%=      5-min Rain = 0
KAI1 241548Z 33006KT 18/17 A3001 RMK A01 T01790171  RH  095%=      5-min Rain = 0
KAI1 241549Z 33005KT 18/17 A3001 RMK A01 T01790172  RH  095%=      5-min Rain = 0
KAI1 241550Z 33005KT 18/17 A3001 RMK A01 T01790172  RH  096%=      5-min Rain = 0
KAI1 241551Z 33006KT 18/17 A3001 RMK A01 T01790172  RH  095%=      5-min Rain = 0
KAI1 241552Z 33006KT 18/17 A3001 RMK A01 T01790172  RH  095%=      5-min Rain = 0
KAI1 241553Z 33006KT 18/17 A3001 RMK A01 T01790171  RH  095%=      5-min Rain = 0
KAI1 241554Z 33006KT 18/17 A3001 RMK A01 T01790172  RH  096%=      5-min Rain = 0
KAI1 241555Z 34007KT 18/17 A3001 RMK A01 T01790172  RH  096%=      5-min Rain = 0
KAI1 241556Z 34006KT 18/17 A3001 RMK A01 T01790171  RH  096%=      5-min Rain = 0
KAI1 241557Z 33005KT 18/17 A3001 RMK A01 T01780172  RH  096%=      5-min Rain = 0
KAI1 241558Z 33005KT 18/17 A3001 RMK A01 T01780172  RH  096%=      5-min Rain = 0
KAI1 241559Z 33006KT 18/17 A3001 RMK A01 T01790173  RH  096%=      5-min Rain = 0
KAI1 241600Z 32005KT 18/17 A3001 RMK A01 T01790172  RH  096%=      5-min Rain = 0
KAI1 241601Z 32005KT 18/17 A3001 RMK A01 T01790173  RH  096%=      5-min Rain = 0
KAI1 241602Z 32006KT 18/17 A3001 RMK A01 T01790173  RH  096%=      5-min Rain = 0
KAI1 241603Z 33006KT 18/17 A3001 RMK A01 T01790173  RH  096%=      5-min Rain = 0
KAI1 241604Z 34006KT 18/17 A3001 RMK A01 T01790173  RH  096%=      5-min Rain = 0
KAI1 241605Z 34006KT 18/17 A3001 RMK A01 T01790173  RH  096%=      5-min Rain = 0
KAI1 241606Z 35004KT 18/17 A3001 RMK A01 T01790173  RH  096%=      5-min Rain = 0
KAI1 241607Z 34005KT 18/17 A3001 RMK A01 T01790174  RH  096%=      5-min Rain = 0
KAI1 241608Z 33004KT 18/17 A3001 RMK A01 T01790174  RH  097%=      5-min Rain = 0
KAI1 241609Z 32004KT 18/17 A3001 RMK A01 T01790174  RH  097%=      5-min Rain = 0
KAI1 241610Z 32005KT 18/17 A3001 RMK A01 T01790174  RH  097%=      5-min Rain = 0
KAI1 241611Z 32006KT 18/17 A3001 RMK A01 T01790174  RH  097%=      5-min Rain = 0
KAI1 241612Z 33006KT 18/17 A3001 RMK A01 T01790174  RH  097%=      5-min Rain = 0
KAI1 241613Z 33006KT 18/17 A3001 RMK A01 T01790174  RH  096%=      5-min Rain = 0
KAI1 241614Z 33006KT 18/17 A3001 RMK A01 T01790174  RH  097%=      5-min Rain = 0
KAI1 241615Z 33006KT 18/17 A3001 RMK A01 T01790174  RH  097%=      5-min Rain = 0
KAI1 241616Z 32006KT 18/17 A3001 RMK A01 T01790174  RH  097%=      5-min Rain = 0
KAI1 241617Z 33005KT 18/17 A3001 RMK A01 T01790174  RH  097%=      5-min Rain = 0
KAI1 241618Z 33003KT 18/17 A3001 RMK A01 T01790174  RH  097%=      5-min Rain = 0
KAI1 241619Z 33002KT 18/18 A3001 RMK A01 T01790175  RH  097%=      5-min Rain = 0
KAI1 241620Z 34005KT 18/18 A3001 RMK A01 T01790175  RH  097%=      5-min Rain = 0
KAI1 241621Z 35006KT 18/18 A3001 RMK A01 T01790175  RH  097%=      5-min Rain = 0
KAI1 241622Z 35006KT 18/18 A3001 RMK A01 T01790175  RH  097%=      5-min Rain = 0
KAI1 241623Z 34005KT 18/18 A3001 RMK A01 T01800175  RH  097%=      5-min Rain = 0
KAI1 241624Z 33005KT 18/18 A3001 RMK A01 T01810177  RH  097%=      5-min Rain = 0
KAI1 241625Z 32004KT 18/18 A3001 RMK A01 T01820178  RH  097%=      5-min Rain = 0
KAI1 241626Z 35004KT 18/18 A3001 RMK A01 T01820177  RH  097%=      5-min Rain = 0
KAI1 241627Z 01003KT 18/18 A3001 RMK A01 T01830178  RH  097%=      5-min Rain = 0
KAI1 241628Z 01002KT 18/18 A3001 RMK A01 T01840180  RH  098%=      5-min Rain = 0
KAI1 241629Z 00002KT 19/18 A3001 RMK A01 T01850182  RH  098%=      5-min Rain = 0
KAI1 241630Z 35005KT 19/18 A3001 RMK A01 T01850181  RH  097%=      5-min Rain = 0
KAI1 241631Z 35005KT 19/18 A3001 RMK A01 T01850179  RH  096%=      5-min Rain = 0
KAI1 241632Z 35005KT 19/18 A3001 RMK A01 T01850179  RH  096%=      5-min Rain = 0
KAI1 241633Z 34005KT 19/18 A3001 RMK A01 T01850179  RH  096%=      5-min Rain = 0
KAI1 241634Z 35005KT 19/18 A3001 RMK A01 T01850179  RH  096%=      5-min Rain = 0
KAI1 241635Z 34004KT 19/18 A3001 RMK A01 T01850179  RH  096%=      5-min Rain = 0
KAI1 241636Z 35004KT 19/18 A3001 RMK A01 T01850179  RH  097%=      5-min Rain = 0
KAI1 241637Z 35004KT 19/18 A3001 RMK A01 T01850180  RH  097%=      5-min Rain = 0
KAI1 241638Z 35004KT 19/18 A3001 RMK A01 T01850179  RH  097%=      5-min Rain = 0
KAI1 241639Z 35003KT 19/18 A3001 RMK A01 T01850180  RH  097%=      5-min Rain = 0
KAI1 241640Z 35003KT 19/18 A3001 RMK A01 T01860181  RH  097%=      5-min Rain = 0
KAI1 241641Z 35004KT 19/18 A3001 RMK A01 T01860182  RH  097%=      5-min Rain = 0
KAI1 241642Z 35005KT 19/18 A3001 RMK A01 T01860181  RH  097%=      5-min Rain = 0
KAI1 241643Z 35004KT 19/18 A3001 RMK A01 T01860181  RH  097%=      5-min Rain = 0.01
KAI1 241644Z 35003KT 19/18 A3001 RMK A01 T01870182  RH  097%=      5-min Rain = 0
KAI1 241645Z 01003KT 19/18 A3001 RMK A01 T01880183  RH  097%=      5-min Rain = 0
KAI1 241646Z 02003KT 19/18 A3001 RMK A01 T01880184  RH  097%=      5-min Rain = 0
KAI1 241647Z 03002KT 19/18 A3001 RMK A01 T01880183  RH  097%=      5-min Rain = 0
KAI1 241648Z 05002KT 19/18 A3001 RMK A01 T01890184  RH  097%=      5-min Rain = 0
KAI1 241649Z 04002KT 19/18 A3001 RMK A01 T01890183  RH  097%=      5-min Rain = 0
KAI1 241650Z 04002KT 19/18 A3001 RMK A01 T01890184  RH  097%=      5-min Rain = 0
KAI1 241651Z 04002KT 19/18 A3001 RMK A01 T01900184  RH  096%=      5-min Rain = 0
KAI1 241652Z 04002KT 19/18 A3001 RMK A01 T01900184  RH  096%=      5-min Rain = 0
KAI1 241653Z 04001KT 19/18 A3001 RMK A01 T01910184  RH  096%=      5-min Rain = 0
KAI1 241654Z 03002KT 19/19 A3001 RMK A01 T01920186  RH  096%=      5-min Rain = 0
KAI1 241655Z 04002KT 19/19 A3001 RMK A01 T01930187  RH  096%=      5-min Rain = 0
KAI1 241656Z 03001KT 19/19 A3001 RMK A01 T01930185  RH  095%=      5-min Rain = 0
KAI1 241657Z 02000KT 19/19 A3001 RMK A01 T01940188  RH  096%=      5-min Rain = 0
KAI1 241658Z 00000KT 20/19 A3001 RMK A01 T01950189  RH  096%=      5-min Rain = 0
KAI1 241659Z 00000KT 20/19 A3001 RMK A01 T01950187  RH  095%=      5-min Rain = 0
KAI1 241700Z 00000KT 20/19 A3001 RMK A01 T01950186  RH  094%=      5-min Rain = 0
KAI1 241701Z 28000KT 20/19 A3001 RMK A01 T01950186  RH  094%=      5-min Rain = 0
KAI1 241702Z 21001KT 20/19 A3001 RMK A01 T01960186  RH  094%=      5-min Rain = 0
KAI1 241703Z 20001KT 20/19 A3001 RMK A01 T01960185  RH  093%=      5-min Rain = 0
KAI1 241704Z 16000KT 20/19 A3001 RMK A01 T01960186  RH  094%=      5-min Rain = 0
KAI1 241705Z 24001KT 20/19 A3001 RMK A01 T01970186  RH  094%=      5-min Rain = 0
KAI1 241706Z 24002KT 20/19 A3001 RMK A01 T01980188  RH  094%=      5-min Rain = 0
KAI1 241707Z 27004KT 20/19 A3001 RMK A01 T01990191  RH  095%=      5-min Rain = 0
KAI1 241708Z 28005KT 20/19 A3001 RMK A01 T01990192  RH  095%=      5-min Rain = 0
KAI1 241709Z 29004KT 20/19 A3001 RMK A01 T01990190  RH  094%=      5-min Rain = 0
KAI1 241710Z 27005KT 20/19 A3001 RMK A01 T01990191  RH  095%=      5-min Rain = 0
KAI1 241711Z 24006KT 20/19 A3001 RMK A01 T02000191  RH  095%=      5-min Rain = 0
KAI1 241712Z 24005KT 20/19 A3001 RMK A01 T02000190  RH  094%=      5-min Rain = 0
KAI1 241713Z 26005KT 20/19 A3001 RMK A01 T02010192  RH  094%=      5-min Rain = 0
KAI1 241714Z 26003KT 20/19 A3001 RMK A01 T02010190  RH  093%=      5-min Rain = 0
KAI1 241715Z 24002KT 20/19 A3001 RMK A01 T02010189  RH  093%=      5-min Rain = 0
KAI1 241716Z 24004KT 20/19 A3001 RMK A01 T02010192  RH  094%=      5-min Rain = 0
KAI1 241717Z 23004KT 20/19 A3001 RMK A01 T02020192  RH  094%=      5-min Rain = 0
KAI1 241718Z 27003KT 20/19 A3001 RMK A01 T02020193  RH  094%=      5-min Rain = 0
KAI1 241719Z 25004KT 20/19 A3001 RMK A01 T02020192  RH  094%=      5-min Rain = 0
KAI1 241720Z 25003KT 20/19 A3001 RMK A01 T02030190  RH  093%=      5-min Rain = 0
KAI1 241721Z 24003KT 20/19 A3001 RMK A01 T02030192  RH  093%=      5-min Rain = 0
KAI1 241722Z 25003KT 20/19 A3001 RMK A01 T02040194  RH  094%=      5-min Rain = 0
KAI1 241723Z 25002KT 21/19 A3001 RMK A01 T02050194  RH  094%=      5-min Rain = 0
KAI1 241724Z 25002KT 21/20 A3001 RMK A01 T02060195  RH  094%=      5-min Rain = 0
KAI1 241725Z 24002KT 21/19 A3001 RMK A01 T02070194  RH  092%=      5-min Rain = 0
KAI1 241726Z 23002KT 21/19 A3001 RMK A01 T02070192  RH  091%=      5-min Rain = 0
KAI1 241727Z 23001KT 21/19 A3001 RMK A01 T02080193  RH  091%=      5-min Rain = 0
KAI1 241728Z 23003KT 21/20 A3001 RMK A01 T02090196  RH  092%=      5-min Rain = 0
KAI1 241729Z 23003KT 21/20 A3001 RMK A01 T02100196  RH  092%=      5-min Rain = 0
KAI1 241730Z 19003KT 21/19 A3001 RMK A01 T02100193  RH  090%=      5-min Rain = 0
KAI1 241731Z 19002KT 21/20 A3001 RMK A01 T02100195  RH  091%=      5-min Rain = 0
KAI1 241732Z 18003KT 21/19 A3001 RMK A01 T02100194  RH  090%=      5-min Rain = 0
KAI1 241733Z 15003KT 21/20 A30 RMK A01 T02090195  RH  091%=      5-min Rain = 0
KAI1 241734Z 15004KT 21/19 A30 RMK A01 T02090194  RH  091%=      5-min Rain = 0
KAI1 241735Z 17007KT 21/20 A30 RMK A01 T02100197  RH  092%=      5-min Rain = 0
KAI1 241736Z 18006KT 21/20 A30 RMK A01 T02110199  RH  093%=      5-min Rain = 0
KAI1 241737Z 18006KT 21/20 A30 RMK A01 T02120199  RH  092%=      5-min Rain = 0
KAI1 241738Z 19005KT 21/20 A30 RMK A01 T02130197  RH  090%=      5-min Rain = 0
KAI1 241739Z 18007KT 21/20 A30 RMK A01 T02140200  RH  092%=      5-min Rain = 0
KAI1 241740Z 19007KT 21/20 A30 RMK A01 T02140197  RH  090%=      5-min Rain = 0
KAI1 241741Z 19007KT 21/20 A3001 RMK A01 T02140198  RH  091%=      5-min Rain = 0
KAI1 241742Z 19007KT 22/20 A3001 RMK A01 T02150200  RH  091%=      5-min Rain = 0
KAI1 241743Z 18006KT 22/20 A30 RMK A01 T02160200  RH  091%=      5-min Rain = 0
KAI1 241744Z 19006KT 22/20 A30 RMK A01 T02170200  RH  090%=      5-min Rain = 0
KAI1 241745Z 20005KT 22/20 A3001 RMK A01 T02170201  RH  091%=      5-min Rain = 0
KAI1 241746Z 20007KT 22/20 A3001 RMK A01 T02170202  RH  091%=      5-min Rain = 0
KAI1 241747Z 19006KT 22/20 A3001 RMK A01 T02170198  RH  089%=      5-min Rain = 0
KAI1 241748Z 19005KT 22/20 A3001 RMK A01 T02160200  RH  091%=      5-min Rain = 0
KAI1 241749Z 18004KT 22/20 A30 RMK A01 T02150199  RH  090%=      5-min Rain = 0
KAI1 241750Z 18004KT 22/20 A30 RMK A01 T02150200  RH  091%=      5-min Rain = 0
KAI1 241751Z 19004KT 22/20 A30 RMK A01 T02150201  RH  092%=      5-min Rain = 0
KAI1 241752Z 21005KT 22/20 A30 RMK A01 T02150201  RH  092%=      5-min Rain = 0
KAI1 241753Z 21005KT 22/20 A30 RMK A01 T02150201  RH  091%=      5-min Rain = 0
KAI1 241754Z 22004KT 22/20 A2999 RMK A01 T02170202  RH  091%=      5-min Rain = 0
KAI1 241755Z 20004KT 22/20 A2999 RMK A01 T02170201  RH  091%=      5-min Rain = 0
KAI1 241756Z 20005KT 22/20 A2999 RMK A01 T02180201  RH  090%=      5-min Rain = 0
KAI1 241757Z 19004KT 22/20 A2999 RMK A01 T02180202  RH  090%=      5-min Rain = 0
KAI1 241758Z 18005KT 22/20 A2999 RMK A01 T02180202  RH  090%=      5-min Rain = 0
KAI1 241759Z 19006KT 22/20 A30 RMK A01 T02180201  RH  090%=      5-min Rain = 0
KAI1 241800Z 17005KT 22/20 A30 RMK A01 T02190203  RH  091%=      5-min Rain = 0
KAI1 241801Z 18004KT 22/20 A2999 RMK A01 T02190202  RH  090%=      5-min Rain = 0
KAI1 241802Z 17005KT 22/20 A2999 RMK A01 T02190202  RH  090%=      5-min Rain = 0
KAI1 241803Z 16003KT 22/20 A2999 RMK A01 T02190203  RH  091%=      5-min Rain = 0
KAI1 241804Z 14004KT 22/20 A2999 RMK A01 T02190203  RH  091%=      5-min Rain = 0
KAI1 241805Z 14005KT 22/20 A2999 RMK A01 T02190201  RH  090%=      5-min Rain = 0
KAI1 241806Z 14005KT 22/20 A2999 RMK A01 T02190202  RH  090%=      5-min Rain = 0
KAI1 241807Z 14005KT 22/20 A30 RMK A01 T02180201  RH  090%=      5-min Rain = 0
KAI1 241808Z 13004KT 22/20 A30 RMK A01 T02170200  RH  090%=      5-min Rain = 0
KAI1 241809Z 14004KT 22/20 A30 RMK A01 T02160198  RH  089%=      5-min Rain = 0
KAI1 241810Z 14004KT 22/20 A2999 RMK A01 T02150198  RH  090%=      5-min Rain = 0
KAI1 241811Z 15004KT 22/20 A2999 RMK A01 T02150200  RH  091%=      5-min Rain = 0
KAI1 241812Z 15003KT 22/20 A2999 RMK A01 T02150200  RH  091%=      5-min Rain = 0
KAI1 241813Z 14002KT 22/20 A2999 RMK A01 T02150200  RH  091%=      5-min Rain = 0
KAI1 241814Z 13002KT 22/20 A2999 RMK A01 T02150198  RH  090%=      5-min Rain = 0
KAI1 241815Z 13003KT 22/20 A2999 RMK A01 T02150198  RH  090%=      5-min Rain = 0
KAI1 241816Z 14004KT 22/20 A2999 RMK A01 T02150200  RH  091%=      5-min Rain = 0
KAI1 241817Z 14004KT 22/20 A2999 RMK A01 T02150199  RH  091%=      5-min Rain = 0
KAI1 241818Z 14005KT 22/20 A2999 RMK A01 T02150199  RH  091%=      5-min Rain = 0
KAI1 241819Z 15005KT 21/20 A2999 RMK A01 T02140200  RH  092%=      5-min Rain = 0
KAI1 241820Z 15005KT 22/20 A2999 RMK A01 T02150199  RH  091%=      5-min Rain = 0
KAI1 241821Z 16005KT 22/20 A2999 RMK A01 T02150199  RH  091%=      5-min Rain = 0
KAI1 241822Z 18004KT 22/20 A2999 RMK A01 T02150199  RH  091%=      5-min Rain = 0
KAI1 241823Z 19004KT 22/20 A2999 RMK A01 T02150199  RH  090%=      5-min Rain = 0
KAI1 241824Z 20003KT 22/20 A2999 RMK A01 T02150199  RH  090%=      5-min Rain = 0
KAI1 241825Z 21003KT 22/20 A2998 RMK A01 T02150198  RH  090%=      5-min Rain = 0
KAI1 241826Z 21003KT 22/20 A2998 RMK A01 T02150200  RH  091%=      5-min Rain = 0
KAI1 241827Z 21002KT 21/20 A2998 RMK A01 T02140198  RH  091%=      5-min Rain = 0
KAI1 241828Z 21003KT 21/20 A2999 RMK A01 T02140199  RH  091%=      5-min Rain = 0
KAI1 241829Z 21002KT 21/20 A2999 RMK A01 T02140200  RH  092%=      5-min Rain = 0
KAI1 241830Z 19003KT 21/20 A2999 RMK A01 T02140200  RH  091%=      5-min Rain = 0
KAI1 241831Z 20003KT 21/20 A2999 RMK A01 T02140198  RH  091%=      5-min Rain = 0
KAI1 241832Z 20004KT 21/20 A2999 RMK A01 T02140199  RH  091%=      5-min Rain = 0
KAI1 241833Z 19004KT 21/20 A2999 RMK A01 T02140199  RH  091%=      5-min Rain = 0
KAI1 241834Z 20004KT 21/20 A2999 RMK A01 T02140199  RH  091%=      5-min Rain = 0
KAI1 241835Z 20004KT 21/20 A2999 RMK A01 T02140199  RH  091%=      5-min Rain = 0
KAI1 241836Z 19004KT 21/20 A2999 RMK A01 T02140200  RH  091%=      5-min Rain = 0
KAI1 241837Z 19004KT 21/20 A2999 RMK A01 T02140200  RH  092%=      5-min Rain = 0
KAI1 241838Z 19003KT 21/20 A2999 RMK A01 T02140198  RH  091%=      5-min Rain = 0
KAI1 241839Z 19003KT 21/20 A2999 RMK A01 T02140199  RH  091%=      5-min Rain = 0
KAI1 241840Z 18003KT 21/20 A2999 RMK A01 T02140200  RH  092%=      5-min Rain = 0
KAI1 241841Z 18004KT 21/20 A2999 RMK A01 T02140201  RH  092%=      5-min Rain = 0
KAI1 241842Z 20005KT 21/20 A2999 RMK A01 T02140199  RH  091%=      5-min Rain = 0
KAI1 241843Z 20004KT 21/20 A2999 RMK A01 T02140199  RH  091%=      5-min Rain = 0
KAI1 241844Z 20004KT 21/20 A2999 RMK A01 T02140200  RH  092%=      5-min Rain = 0
KAI1 241845Z 19003KT 21/20 A2999 RMK A01 T02130200  RH  092%=      5-min Rain = 0
KAI1 241846Z 18003KT 21/20 A2999 RMK A01 T02130200  RH  092%=      5-min Rain = 0
KAI1 241847Z 18003KT 21/20 A2999 RMK A01 T02130199  RH  092%=      5-min Rain = 0
KAI1 241848Z 18003KT 21/20 A2999 RMK A01 T02130199  RH  092%=      5-min Rain = 0
KAI1 241849Z 19003KT 21/20 A2999 RMK A01 T02130199  RH  092%=      5-min Rain = 0
KAI1 241850Z 20004KT 21/20 A2999 RMK A01 T02130200  RH  092%=      5-min Rain = 0
KAI1 241851Z 20004KT 21/20 A2999 RMK A01 T02130200  RH  092%=      5-min Rain = 0
KAI1 241852Z 21004KT 21/20 A2999 RMK A01 T02130200  RH  093%=      5-min Rain = 0
KAI1 241853Z 21004KT 21/20 A2999 RMK A01 T02130201  RH  093%=      5-min Rain = 0
KAI1 241854Z 21004KT 21/20 A2999 RMK A01 T02120201  RH  093%=      5-min Rain = 0
KAI1 241855Z 22003KT 21/20 A2999 RMK A01 T02120201  RH  093%=      5-min Rain = 0
KAI1 241856Z 22002KT 21/20 A2998 RMK A01 T02120201  RH  094%=      5-min Rain = 0
KAI1 241857Z 21002KT 21/20 A2998 RMK A01 T02110201  RH  094%=      5-min Rain = 0
KAI1 241858Z 19002KT 21/20 A2998 RMK A01 T02110200  RH  094%=      5-min Rain = 0.01
KAI1 241859Z 18001KT 21/20 A2997 RMK A01 T02110201  RH  094%=      5-min Rain = 0
KAI1 241900Z 16000KT 21/20 A2997 RMK A01 T02110201  RH  094%=      5-min Rain = 0
KAI1 241901Z 09001KT 21/20 A2997 RMK A01 T02100201  RH  094%=      5-min Rain = 0
KAI1 241902Z 09002KT 21/20 A2996 RMK A01 T02100200  RH  094%=      5-min Rain = 0
KAI1 241903Z 09003KT 21/20 A2996 RMK A01 T02100200  RH  094%=      5-min Rain = 0
KAI1 241904Z 09004KT 21/20 A2996 RMK A01 T02100200  RH  094%=      5-min Rain = 0
KAI1 241905Z 08005KT 21/20 A2995 RMK A01 T02110201  RH  094%=      5-min Rain = 0
KAI1 241906Z 08005KT 21/20 A2995 RMK A01 T02110201  RH  094%=      5-min Rain = 0
KAI1 241907Z 08004KT 21/20 A2996 RMK A01 T02110202  RH  095%=      5-min Rain = 0
KAI1 241908Z 08003KT 21/20 A2996 RMK A01 T02110202  RH  094%=      5-min Rain = 0
KAI1 241909Z 08001KT 21/20 A2997 RMK A01 T02110201  RH  094%=      5-min Rain = 0
KAI1 241910Z 08000KT 21/20 A2997 RMK A01 T02100201  RH  094%=      5-min Rain = 0
KAI1 241911Z 00000KT 21/20 A2997 RMK A01 T02100201  RH  095%=      5-min Rain = 0
KAI1 241912Z 00000KT 21/20 A2997 RMK A01 T02100201  RH  095%=      5-min Rain = 0
KAI1 241913Z 08000KT 21/20 A2997 RMK A01 T02100201  RH  095%=      5-min Rain = 0
KAI1 241914Z 08002KT 21/20 A2997 RMK A01 T02100201  RH  094%=      5-min Rain = 0
KAI1 241915Z 09002KT 21/20 A2997 RMK A01 T02100201  RH  095%=      5-min Rain = 0
KAI1 241916Z 10003KT 21/20 A2997 RMK A01 T02100202  RH  095%=      5-min Rain = 0
KAI1 241917Z 10003KT 21/20 A2998 RMK A01 T02100202  RH  095%=      5-min Rain = 0
KAI1 241918Z 10003KT 21/20 A2998 RMK A01 T02100202  RH  095%=      5-min Rain = 0
KAI1 241919Z 11003KT 21/20 A2998 RMK A01 T02100202  RH  095%=      5-min Rain = 0
KAI1 241920Z 12003KT 21/20 A2999 RMK A01 T02100202  RH  095%=      5-min Rain = 0
KAI1 241921Z 12004KT 21/20 A2999 RMK A01 T02100202  RH  096%=      5-min Rain = 0
KAI1 241922Z 12005KT 21/20 A2999 RMK A01 T02090203  RH  096%=      5-min Rain = 0
KAI1 241923Z 11005KT 21/20 A2999 RMK A01 T02100203  RH  096%=      5-min Rain = 0.01
KAI1 241924Z 12005KT 21/20 A2999 RMK A01 T02090203  RH  096%=      5-min Rain = 0
KAI1 241925Z 13005KT 21/20 A2999 RMK A01 T02090202  RH  096%=      5-min Rain = 0
KAI1 241926Z 13005KT 21/20 A2999 RMK A01 T02090202  RH  096%=      5-min Rain = 0
KAI1 241927Z 13005KT 21/20 A2999 RMK A01 T02090203  RH  096%=      5-min Rain = 0
KAI1 241928Z 13005KT 21/20 A2998 RMK A01 T02090202  RH  096%=      5-min Rain = 0
KAI1 241929Z 12004KT 21/20 A2998 RMK A01 T02090203  RH  096%=      5-min Rain = 0
KAI1 241930Z 12003KT 21/20 A2998 RMK A01 T02090202  RH  096%=      5-min Rain = 0
KAI1 241931Z 11002KT 21/20 A2997 RMK A01 T02080202  RH  096%=      5-min Rain = 0
KAI1 241932Z 10002KT 21/20 A2997 RMK A01 T02080202  RH  096%=      5-min Rain = 0
KAI1 241933Z 10002KT 21/20 A2996 RMK A01 T02080202  RH  096%=      5-min Rain = 0
KAI1 241934Z 10002KT 21/20 A2996 RMK A01 T02080202  RH  096%=      5-min Rain = 0
KAI1 241935Z 10003KT 21/20 A2996 RMK A01 T02080202  RH  096%=      5-min Rain = 0
KAI1 241936Z 10003KT 21/20 A2996 RMK A01 T02080202  RH  096%=      5-min Rain = 0.01
KAI1 241937Z 09002KT 21/20 A2995 RMK A01 T02080202  RH  096%=      5-min Rain = 0
KAI1 241938Z 08001KT 21/20 A2995 RMK A01 T02080202  RH  096%=      5-min Rain = 0
KAI1 241939Z 07000KT 21/20 A2995 RMK A01 T02070201  RH  096%=      5-min Rain = 0
KAI1 241940Z 00000KT 21/20 A2995 RMK A01 T02070201  RH  096%=      5-min Rain = 0
KAI1 241941Z 01000KT 21/20 A2995 RMK A01 T02070200  RH  096%=      5-min Rain = 0
KAI1 241942Z 00001KT 21/20 A2994 RMK A01 T02060200  RH  096%=      5-min Rain = 0
KAI1 241943Z 36001KT 21/20 A2994 RMK A01 T02060200  RH  096%=      5-min Rain = 0
KAI1 241944Z 35002KT 21/20 A2993 RMK A01 T02050200  RH  097%=      5-min Rain = 0
KAI1 241945Z 01001KT 21/20 A2994 RMK A01 T02050199  RH  097%=      5-min Rain = 0
KAI1 241946Z 04001KT 20/20 A2994 RMK A01 T02040199  RH  097%=      5-min Rain = 0
KAI1 241947Z 08001KT 20/20 A2994 RMK A01 T02040199  RH  097%=      5-min Rain = 0
KAI1 241948Z 10002KT 20/20 A2994 RMK A01 T02040200  RH  097%=      5-min Rain = 0
KAI1 241949Z 12003KT 21/20 A2995 RMK A01 T02050200  RH  097%=      5-min Rain = 0
KAI1 241950Z 13004KT 21/20 A2996 RMK A01 T02050200  RH  097%=      5-min Rain = 0
KAI1 241951Z 14004KT 21/20 A2996 RMK A01 T02050201  RH  097%=      5-min Rain = 0
KAI1 241952Z 14004KT 21/20 A2996 RMK A01 T02060201  RH  097%=      5-min Rain = 0
KAI1 241953Z 14003KT 21/20 A2996 RMK A01 T02060201  RH  097%=      5-min Rain = 0
KAI1 241954Z 15002KT 21/20 A2995 RMK A01 T02060201  RH  097%=      5-min Rain = 0
KAI1 241955Z 14001KT 21/20 A2995 RMK A01 T02060200  RH  097%=      5-min Rain = 0
KAI1 241956Z 12000KT 21/20 A2994 RMK A01 T02060200  RH  096%=      5-min Rain = 0
KAI1 241957Z 07001KT 21/20 A2994 RMK A01 T02060200  RH  096%=      5-min Rain = 0
KAI1 241958Z 06001KT 21/20 A2994 RMK A01 T02060200  RH  096%=      5-min Rain = 0
KAI1 241959Z 06001KT 21/20 A2994 RMK A01 T02060199  RH  096%=      5-min Rain = 0
KAI1 242000Z 04000KT 21/20 A2995 RMK A01 T02060199  RH  096%=      5-min Rain = 0
KAI1 242001Z 03001KT 21/20 A2995 RMK A01 T02050198  RH  096%=      5-min Rain = 0
KAI1 242002Z 01001KT 20/20 A2995 RMK A01 T02040197  RH  096%=      5-min Rain = 0
KAI1 242003Z 00002KT 20/20 A2996 RMK A01 T02030197  RH  096%=      5-min Rain = 0
KAI1 242004Z 00002KT 20/20 A2996 RMK A01 T02030197  RH  097%=      5-min Rain = 0
KAI1 242005Z 35003KT 20/20 A2997 RMK A01 T02030198  RH  097%=      5-min Rain = 0
KAI1 242006Z 34002KT 20/20 A2997 RMK A01 T02030198  RH  097%=      5-min Rain = 0
KAI1 242007Z 34001KT 20/20 A2997 RMK A01 T02030198  RH  097%=      5-min Rain = 0
KAI1 242008Z 00000KT 20/20 A2997 RMK A01 T02020198  RH  097%=      5-min Rain = 0
KAI1 242009Z 00000KT 20/20 A2997 RMK A01 T02030198  RH  097%=      5-min Rain = 0
KAI1 242010Z 34000KT 20/20 A2997 RMK A01 T02030198  RH  097%=      5-min Rain = 0
KAI1 242011Z 34001KT 20/20 A2997 RMK A01 T02030199  RH  097%=      5-min Rain = 0
KAI1 242012Z 31001KT 20/20 A2997 RMK A01 T02030199  RH  097%=      5-min Rain = 0
KAI1 242013Z 30002KT 20/20 A2997 RMK A01 T02020198  RH  097%=      5-min Rain = 0
KAI1 242014Z 29001KT 20/20 A2997 RMK A01 T02020198  RH  097%=      5-min Rain = 0
KAI1 242015Z 30002KT 20/20 A2997 RMK A01 T02020198  RH  098%=      5-min Rain = 0
KAI1 242016Z 30002KT 20/20 A2997 RMK A01 T02020198  RH  098%=      5-min Rain = 0
KAI1 242017Z 30002KT 20/20 A2996 RMK A01 T02020199  RH  098%=      5-min Rain = 0
KAI1 242018Z 31002KT 20/20 A2996 RMK A01 T02020199  RH  098%=      5-min Rain = 0
KAI1 242019Z 31003KT 20/20 A2996 RMK A01 T02020199  RH  098%=      5-min Rain = 0
KAI1 242020Z 31004KT 20/20 A2995 RMK A01 T02030199  RH  098%=      5-min Rain = 0
KAI1 242021Z 31004KT 20/20 A2995 RMK A01 T02030199  RH  097%=      5-min Rain = 0
KAI1 242022Z 32004KT 20/20 A2994 RMK A01 T02030199  RH  097%=      5-min Rain = 0
KAI1 242023Z 32004KT 20/20 A2994 RMK A01 T02030199  RH  098%=      5-min Rain = 0
KAI1 242024Z 33003KT 20/20 A2994 RMK A01 T02030199  RH  098%=      5-min Rain = 0
KAI1 242025Z 34003KT 20/20 A2994 RMK A01 T02030199  RH  098%=      5-min Rain = 0
KAI1 242026Z 35002KT 20/20 A2993 RMK A01 T02030199  RH  098%=      5-min Rain = 0
KAI1 242027Z 00002KT 20/20 A2993 RMK A01 T02030199  RH  098%=      5-min Rain = 0
KAI1 242028Z 02002KT 20/20 A2994 RMK A01 T02030199  RH  098%=      5-min Rain = 0
KAI1 242029Z 04002KT 20/20 A2994 RMK A01 T02030199  RH  098%=      5-min Rain = 0
KAI1 242030Z 08003KT 20/20 A2994 RMK A01 T02030200  RH  098%=      5-min Rain = 0
KAI1 242031Z 12007KT 20/20 A2995 RMK A01 T02040200  RH  098%=      5-min Rain = 0
KAI1 242032Z 11009KT 20/20 A2995 RMK A01 T02040200  RH  097%=      5-min Rain = 0
KAI1 242033Z 11006KT 20/19 A2994 RMK A01 T02030193  RH  094%=      5-min Rain = 0
KAI1 242034Z 11006KT 20/19 A2995 RMK A01 T02030189  RH  092%=      5-min Rain = 0
KAI1 242035Z 12009KT 20/19 A2995 RMK A01 T02030185  RH  089%=      5-min Rain = 0
KAI1 242036Z 12012KT 20/18 A2995 RMK A01 T02000179  RH  088%=      5-min Rain = 0
KAI1 242037Z 11012KT 20/18 A2996 RMK A01 T01980176  RH  087%=      5-min Rain = 0
KAI1 242038Z 13011KT 20/18 A2996 RMK A01 T01960176  RH  088%=      5-min Rain = 0
KAI1 242039Z 14011KT 20/18 A2996 RMK A01 T01950177  RH  090%=      5-min Rain = 0
KAI1 242040Z 14010KT 19/18 A2996 RMK A01 T01940178  RH  090%=      5-min Rain = 0
KAI1 242041Z 14010KT 19/18 A2996 RMK A01 T01930177  RH  090%=      5-min Rain = 0
KAI1 242042Z 14009KT 19/18 A2995 RMK A01 T01920176  RH  091%=      5-min Rain = 0
KAI1 242043Z 14008KT 19/18 A2995 RMK A01 T01910175  RH  090%=      5-min Rain = 0
KAI1 242044Z 14008KT 19/17 A2995 RMK A01 T01900174  RH  090%=      5-min Rain = 0
KAI1 242045Z 15008KT 19/18 A2995 RMK A01 T01900175  RH  091%=      5-min Rain = 0
KAI1 242046Z 15008KT 19/17 A2994 RMK A01 T01890174  RH  091%=      5-min Rain = 0
KAI1 242047Z 15007KT 19/17 A2994 RMK A01 T01890174  RH  091%=      5-min Rain = 0
KAI1 242048Z 13006KT 19/17 A2993 RMK A01 T01880173  RH  091%=      5-min Rain = 0.01
KAI1 242049Z 13010KT 19/16 A2993 RMK A01 T01870163  RH  086%=      5-min Rain = 0
KAI1 242050Z 14012KT 19/15 A2993 RMK A01 T01860153  RH  081%=      5-min Rain = 0
KAI1 242051Z 15010KT 18/15 A2994 RMK A01 T01840153  RH  082%=      5-min Rain = 0
KAI1 242052Z 16011KT 18/15 A2994 RMK A01 T01830154  RH  083%=      5-min Rain = 0
KAI1 242053Z 16012KT 18/16 A2995 RMK A01 T01820155  RH  084%=      5-min Rain = 0
KAI1 242054Z 17015KT 18/15 A2995 RMK A01 T01810154  RH  084%=      5-min Rain = 0
KAI1 242055Z 17013KT 18/15 A2995 RMK A01 T01790154  RH  086%=      5-min Rain = 0
KAI1 242056Z 15010KT 18/15 A2995 RMK A01 T01770153  RH  086%=      5-min Rain = 0
KAI1 242057Z 13009KT 18/15 A2994 RMK A01 T01760152  RH  086%=      5-min Rain = 0
KAI1 242058Z 13010KT 18/15 A2994 RMK A01 T01750152  RH  086%=      5-min Rain = 0
KAI1 242059Z 13011KT 17/15 A2994 RMK A01 T01740152  RH  087%=      5-min Rain = 0
KAI1 242100Z 13011KT 17/15 A2995 RMK A01 T01730152  RH  087%=      5-min Rain = 0
KAI1 242101Z 14011KT 17/15 A2995 RMK A01 T01720150  RH  087%=      5-min Rain = 0
KAI1 242102Z 15011KT 17/15 A2995 RMK A01 T01720152  RH  088%=      5-min Rain = 0
KAI1 242103Z 15011KT 17/15 A2995 RMK A01 T01710153  RH  089%=      5-min Rain = 0
KAI1 242104Z 15010KT 17/15 A2995 RMK A01 T01710154  RH  090%=      5-min Rain = 0
KAI1 242105Z 15010KT 17/15 A2995 RMK A01 T01700154  RH  090%=      5-min Rain = 0
KAI1 242106Z 15010KT 17/16 A2995 RMK A01 T01700156  RH  091%=      5-min Rain = 0
KAI1 242107Z 15011KT 17/16 A2994 RMK A01 T01700156  RH  091%=      5-min Rain = 0
KAI1 242108Z 15012KT 17/16 A2994 RMK A01 T01700155  RH  091%=      5-min Rain = 0
KAI1 242109Z 16012KT 17/16 A2994 RMK A01 T01690155  RH  091%=      5-min Rain = 0
KAI1 242110Z 17010KT 17/16 A2994 RMK A01 T01690155  RH  092%=      5-min Rain = 0
KAI1 242111Z 17011KT 17/16 A2993 RMK A01 T01690155  RH  092%=      5-min Rain = 0
KAI1 242112Z 17010KT 17/15 A2993 RMK A01 T01680154  RH  091%=      5-min Rain = 0
KAI1 242113Z 17009KT 17/15 A2993 RMK A01 T01680154  RH  092%=      5-min Rain = 0
KAI1 242114Z 18008KT 17/16 A2992 RMK A01 T01670155  RH  092%=      5-min Rain = 0
KAI1 242115Z 18008KT 17/15 A2992 RMK A01 T01670154  RH  092%=      5-min Rain = 0
KAI1 242116Z 19007KT 17/15 A2992 RMK A01 T01660154  RH  093%=      5-min Rain = 0
KAI1 242117Z 18009KT 17/16 A2992 RMK A01 T01660155  RH  093%=      5-min Rain = 0
KAI1 242118Z 18009KT 17/16 A2992 RMK A01 T01660155  RH  093%=      5-min Rain = 0
KAI1 242119Z 18008KT 17/15 A2992 RMK A01 T01660154  RH  093%=      5-min Rain = 0
KAI1 242120Z 18009KT 17/16 A2992 RMK A01 T01660155  RH  093%=      5-min Rain = 0
KAI1 242121Z 17008KT 17/16 A2992 RMK A01 T01660156  RH  094%=      5-min Rain = 0
KAI1 242122Z 17008KT 17/16 A2992 RMK A01 T01660156  RH  094%=      5-min Rain = 0
KAI1 242123Z 16007KT 17/16 A2992 RMK A01 T01660155  RH  093%=      5-min Rain = 0
KAI1 242124Z 16006KT 17/16 A2992 RMK A01 T01660156  RH  094%=      5-min Rain = 0
KAI1 242125Z 15006KT 17/16 A2992 RMK A01 T01660157  RH  094%=      5-min Rain = 0
KAI1 242126Z 15005KT 17/16 A2992 RMK A01 T01660156  RH  094%=      5-min Rain = 0
KAI1 242127Z 16004KT 17/16 A2992 RMK A01 T01660156  RH  094%=      5-min Rain = 0
KAI1 242128Z 18004KT 17/16 A2992 RMK A01 T01660157  RH  094%=      5-min Rain = 0
KAI1 242129Z 19006KT 17/16 A2992 RMK A01 T01660157  RH  094%=      5-min Rain = 0
KAI1 242130Z 21004KT 17/16 A2992 RMK A01 T01660156  RH  094%=      5-min Rain = 0
KAI1 242131Z 23003KT 17/16 A2993 RMK A01 T01660156  RH  094%=      5-min Rain = 0
KAI1 242132Z 22002KT 17/16 A2993 RMK A01 T01660156  RH  094%=      5-min Rain = 0
KAI1 242133Z 09000KT 17/16 A2993 RMK A01 T01660156  RH  094%=      5-min Rain = 0
KAI1 242134Z 07003KT 17/16 A2993 RMK A01 T01660157  RH  094%=      5-min Rain = 0
KAI1 242135Z 09005KT 17/16 A2993 RMK A01 T01660156  RH  094%=      5-min Rain = 0
KAI1 242136Z 10008KT 17/16 A2994 RMK A01 T01670157  RH  094%=      5-min Rain = 0
KAI1 242137Z 11010KT 17/16 A2994 RMK A01 T01680158  RH  094%=      5-min Rain = 0
KAI1 242138Z 12011KT 17/16 A2995 RMK A01 T01680158  RH  094%=      5-min Rain = 0
KAI1 242139Z 13010KT 17/16 A2995 RMK A01 T01680158  RH  094%=      5-min Rain = 0
KAI1 242140Z 13009KT 17/16 A2995 RMK A01 T01670157  RH  094%=      5-min Rain = 0
KAI1 242141Z 13009KT 17/16 A2995 RMK A01 T01670157  RH  094%=      5-min Rain = 0
KAI1 242142Z 14007KT 17/16 A2995 RMK A01 T01670158  RH  094%=      5-min Rain = 0
KAI1 242143Z 16007KT 17/16 A2994 RMK A01 T01670158  RH  094%=      5-min Rain = 0
KAI1 242144Z 17007KT 17/16 A2994 RMK A01 T01670158  RH  094%=      5-min Rain = 0
KAI1 242145Z 18006KT 17/16 A2994 RMK A01 T01670157  RH  094%=      5-min Rain = 0
KAI1 242146Z 18006KT 17/16 A2993 RMK A01 T01670157  RH  094%=      5-min Rain = 0
KAI1 242147Z 18005KT 17/16 A2993 RMK A01 T01670157  RH  094%=      5-min Rain = 0
KAI1 242148Z 16005KT 17/16 A2993 RMK A01 T01680158  RH  094%=      5-min Rain = 0
KAI1 242149Z 12009KT 17/16 A2993 RMK A01 T01680157  RH  093%=      5-min Rain = 0
KAI1 242150Z 12011KT 17/16 A2993 RMK A01 T01690158  RH  093%=      5-min Rain = 0
KAI1 242151Z 11009KT 17/16 A2993 RMK A01 T01690157  RH  093%=      5-min Rain = 0
KAI1 242152Z 11011KT 17/16 A2993 RMK A01 T01680157  RH  093%=      5-min Rain = 0
KAI1 242153Z 12009KT 17/16 A2993 RMK A01 T01680156  RH  092%=      5-min Rain = 0
KAI1 242154Z 11007KT 17/15 A2993 RMK A01 T01670154  RH  092%=      5-min Rain = 0
KAI1 242155Z 11008KT 17/15 A2993 RMK A01 T01670154  RH  092%=      5-min Rain = 0
KAI1 242156Z 10009KT 17/15 A2993 RMK A01 T01670154  RH  092%=      5-min Rain = 0
KAI1 242157Z 10009KT 17/15 A2992 RMK A01 T01660154  RH  093%=      5-min Rain = 0
KAI1 242158Z 10010KT 17/15 A2992 RMK A01 T01650154  RH  093%=      5-min Rain = 0
KAI1 242159Z 11010KT 17/15 A2992 RMK A01 T01650153  RH  093%=      5-min Rain = 0
KAI1 242200Z 11010KT 16/15 A2992 RMK A01 T01640154  RH  093%=      5-min Rain = 0
KAI1 242201Z 11009KT 16/15 A2992 RMK A01 T01640154  RH  094%=      5-min Rain = 0
KAI1 242202Z 10009KT 16/16 A2992 RMK A01 T01640156  RH  095%=      5-min Rain = 0
KAI1 242203Z 10011KT 16/16 A2992 RMK A01 T01640156  RH  095%=      5-min Rain = 0
KAI1 242204Z 11010KT 16/16 A2992 RMK A01 T01640155  RH  095%=      5-min Rain = 0
KAI1 242205Z 11010KT 16/16 A2992 RMK A01 T01630155  RH  095%=      5-min Rain = 0
KAI1 242206Z 11010KT 16/15 A2992 RMK A01 T01630154  RH  094%=      5-min Rain = 0
KAI1 242207Z 11010KT 16/15 A2992 RMK A01 T01630154  RH  094%=      5-min Rain = 0
KAI1 242208Z 11009KT 16/15 A2992 RMK A01 T01630153  RH  094%=      5-min Rain = 0
KAI1 242209Z 12008KT 16/15 A2992 RMK A01 T01630153  RH  094%=      5-min Rain = 0
KAI1 242210Z 11008KT 16/15 A2992 RMK A01 T01640154  RH  094%=      5-min Rain = 0
KAI1 242211Z 11008KT 16/15 A2992 RMK A01 T01640153  RH  093%=      5-min Rain = 0
KAI1 242212Z 11008KT 16/15 A2992 RMK A01 T01640153  RH  093%=      5-min Rain = 0
KAI1 242213Z 11010KT 17/15 A2992 RMK A01 T01650154  RH  093%=      5-min Rain = 0
KAI1 242214Z 11010KT 17/15 A2992 RMK A01 T01650154  RH  093%=      5-min Rain = 0
KAI1 242215Z 11010KT 16/15 A2992 RMK A01 T01640154  RH  094%=      5-min Rain = 0
KAI1 242216Z 11010KT 17/15 A2992 RMK A01 T01650154  RH  094%=      5-min Rain = 0
KAI1 242217Z 12011KT 16/16 A2992 RMK A01 T01640155  RH  094%=      5-min Rain = 0
KAI1 242218Z 12012KT 17/16 A2992 RMK A01 T01650155  RH  094%=      5-min Rain = 0
KAI1 242219Z 12011KT 16/15 A2992 RMK A01 T01640154  RH  094%=      5-min Rain = 0
KAI1 242220Z 12012KT 16/15 A2993 RMK A01 T01640154  RH  094%=      5-min Rain = 0
KAI1 242221Z 13012KT 16/15 A2993 RMK A01 T01640154  RH  094%=      5-min Rain = 0
KAI1 242222Z 12012KT 16/15 A2993 RMK A01 T01640154  RH  094%=      5-min Rain = 0
KAI1 242223Z 12012KT 16/15 A2994 RMK A01 T01630154  RH  094%=      5-min Rain = 0
KAI1 242224Z 13013KT 16/15 A2994 RMK A01 T01630154  RH  094%=      5-min Rain = 0
KAI1 242225Z 13012KT 16/15 A2994 RMK A01 T01630153  RH  094%=      5-min Rain = 0
KAI1 242226Z 13010KT 16/15 A2994 RMK A01 T01630153  RH  094%=      5-min Rain = 0
KAI1 242227Z 13011KT 16/15 A2993 RMK A01 T01630154  RH  094%=      5-min Rain = 0
KAI1 242228Z 13011KT 16/15 A2993 RMK A01 T01630154  RH  094%=      5-min Rain = 0
KAI1 242229Z 12010KT 16/15 A2993 RMK A01 T01630154  RH  095%=      5-min Rain = 0
KAI1 242230Z 12010KT 16/15 A2992 RMK A01 T01620154  RH  095%=      5-min Rain = 0
KAI1 242231Z 13008KT 16/15 A2991 RMK A01 T01620154  RH  095%=      5-min Rain = 0
KAI1 242232Z 14008KT 16/15 A2991 RMK A01 T01620154  RH  095%=      5-min Rain = 0
KAI1 242233Z 15007KT 16/15 A2991 RMK A01 T01620153  RH  095%=      5-min Rain = 0
KAI1 242234Z 15006KT 16/15 A2991 RMK A01 T01620154  RH  095%=      5-min Rain = 0
KAI1 242235Z 14006KT 16/15 A2991 RMK A01 T01620154  RH  095%=      5-min Rain = 0
KAI1 242236Z 15005KT 16/15 A2991 RMK A01 T01620154  RH  095%=      5-min Rain = 0
KAI1 242237Z 15004KT 16/15 A2991 RMK A01 T01620154  RH  095%=      5-min Rain = 0
KAI1 242238Z 15004KT 16/15 A2991 RMK A01 T01620154  RH  095%=      5-min Rain = 0
KAI1 242239Z 14004KT 16/15 A299 RMK A01 T01610153  RH  095%=      5-min Rain = 0
KAI1 242240Z 13005KT 16/15 A299 RMK A01 T01610154  RH  095%=      5-min Rain = 0
KAI1 242241Z 12005KT 16/15 A299 RMK A01 T01610154  RH  095%=      5-min Rain = 0
KAI1 242242Z 11006KT 16/15 A299 RMK A01 T01610154  RH  096%=      5-min Rain = 0
KAI1 242243Z 11006KT 16/16 A299 RMK A01 T01610155  RH  096%=      5-min Rain = 0
KAI1 242244Z 12006KT 16/15 A299 RMK A01 T01610154  RH  096%=      5-min Rain = 0
KAI1 242245Z 13007KT 16/15 A2991 RMK A01 T01610154  RH  095%=      5-min Rain = 0
KAI1 242246Z 11008KT 16/15 A2991 RMK A01 T01610154  RH  096%=      5-min Rain = 0
KAI1 242247Z 10010KT 16/16 A2991 RMK A01 T01620155  RH  096%=      5-min Rain = 0
KAI1 242248Z 10010KT 16/16 A2991 RMK A01 T01620155  RH  096%=      5-min Rain = 0
KAI1 242249Z 10011KT 16/16 A299 RMK A01 T01620155  RH  096%=      5-min Rain = 0
KAI1 242250Z 10011KT 16/15 A299 RMK A01 T01620154  RH  095%=      5-min Rain = 0
KAI1 242251Z 10011KT 16/15 A299 RMK A01 T01620154  RH  095%=      5-min Rain = 0
KAI1 242252Z 10009KT 16/15 A299 RMK A01 T01620154  RH  095%=      5-min Rain = 0
KAI1 242253Z 10008KT 16/15 A2989 RMK A01 T01620153  RH  095%=      5-min Rain = 0
KAI1 242254Z 10005KT 16/15 A2989 RMK A01 T01620153  RH  095%=      5-min Rain = 0
KAI1 242255Z 09005KT 16/15 A2989 RMK A01 T01620154  RH  095%=      5-min Rain = 0
KAI1 242256Z 09004KT 16/15 A2988 RMK A01 T01610153  RH  095%=      5-min Rain = 0
KAI1 242257Z 09005KT 16/15 A2988 RMK A01 T01610153  RH  095%=      5-min Rain = 0
KAI1 242258Z 09005KT 16/15 A2988 RMK A01 T01610153  RH  095%=      5-min Rain = 0
KAI1 242259Z 09005KT 16/15 A2988 RMK A01 T01610153  RH  095%=      5-min Rain = 0
KAI1 242300Z 11005KT 16/15 A2989 RMK A01 T01610152  RH  094%=      5-min Rain = 0
KAI1 242301Z 12004KT 16/15 A2989 RMK A01 T01610151  RH  094%=      5-min Rain = 0
KAI1 242302Z 13003KT 16/15 A2989 RMK A01 T01610151  RH  094%=      5-min Rain = 0
KAI1 242303Z 14004KT 16/15 A2989 RMK A01 T01620152  RH  094%=      5-min Rain = 0
KAI1 242304Z 14003KT 16/15 A2989 RMK A01 T01610152  RH  094%=      5-min Rain = 0
KAI1 242305Z 13002KT 16/15 A2989 RMK A01 T01610152  RH  094%=      5-min Rain = 0
KAI1 242306Z 13001KT 16/15 A2988 RMK A01 T01610151  RH  094%=      5-min Rain = 0
KAI1 242307Z 12001KT 16/15 A2988 RMK A01 T01610150  RH  093%=      5-min Rain = 0
KAI1 242308Z 09002KT 16/15 A2988 RMK A01 T01610151  RH  094%=      5-min Rain = 0
KAI1 242309Z 09001KT 16/15 A2988 RMK A01 T01610151  RH  094%=      5-min Rain = 0
KAI1 242310Z 10002KT 16/15 A2988 RMK A01 T01610152  RH  094%=      5-min Rain = 0
KAI1 242311Z 10002KT 16/15 A2988 RMK A01 T01610152  RH  094%=      5-min Rain = 0
KAI1 242312Z 11002KT 16/15 A2988 RMK A01 T01620152  RH  094%=      5-min Rain = 0
KAI1 242313Z 11002KT 16/15 A2988 RMK A01 T01610151  RH  094%=      5-min Rain = 0
KAI1 242314Z 11002KT 16/15 A2989 RMK A01 T01610151  RH  094%=      5-min Rain = 0
KAI1 242315Z 10002KT 16/15 A2989 RMK A01 T01610151  RH  094%=      5-min Rain = 0
KAI1 242316Z 10001KT 16/15 A2989 RMK A01 T01610150  RH  093%=      5-min Rain = 0
KAI1 242317Z 10002KT 16/15 A2988 RMK A01 T01610151  RH  093%=      5-min Rain = 0
KAI1 242318Z 10002KT 16/15 A2988 RMK A01 T01610151  RH  094%=      5-min Rain = 0
KAI1 242319Z 10002KT 16/15 A2989 RMK A01 T01610151  RH  093%=      5-min Rain = 0
KAI1 242320Z 09002KT 16/15 A2989 RMK A01 T01610151  RH  093%=      5-min Rain = 0
KAI1 242321Z 09002KT 16/15 A2989 RMK A01 T01610150  RH  093%=      5-min Rain = 0
KAI1 242322Z 12002KT 16/15 A299 RMK A01 T01610151  RH  093%=      5-min Rain = 0
KAI1 242323Z 14002KT 16/15 A299 RMK A01 T01610151  RH  093%=      5-min Rain = 0
KAI1 242324Z 15002KT 16/15 A299 RMK A01 T01620151  RH  093%=      5-min Rain = 0
KAI1 242325Z 17003KT 16/15 A299 RMK A01 T01620152  RH  094%=      5-min Rain = 0
KAI1 242326Z 16004KT 16/15 A299 RMK A01 T01620152  RH  094%=      5-min Rain = 0
KAI1 242327Z 15004KT 16/15 A299 RMK A01 T01620153  RH  094%=      5-min Rain = 0
KAI1 242328Z 14006KT 16/15 A299 RMK A01 T01620153  RH  094%=      5-min Rain = 0
KAI1 242329Z 13007KT 16/15 A2991 RMK A01 T01620153  RH  094%=      5-min Rain = 0
KAI1 242330Z 13008KT 16/15 A2991 RMK A01 T01620153  RH  095%=      5-min Rain = 0
KAI1 242331Z 13010KT 16/15 A2991 RMK A01 T01620153  RH  094%=      5-min Rain = 0
KAI1 242332Z 14012KT 16/15 A2992 RMK A01 T01620154  RH  095%=      5-min Rain = 0
KAI1 242333Z 15011KT 16/15 A2992 RMK A01 T01620154  RH  095%=      5-min Rain = 0
KAI1 242334Z 16010KT 16/15 A2992 RMK A01 T01620154  RH  095%=      5-min Rain = 0
KAI1 242335Z 17008KT 16/15 A2991 RMK A01 T01620153  RH  095%=      5-min Rain = 0
KAI1 242336Z 17008KT 16/15 A2991 RMK A01 T01610153  RH  095%=      5-min Rain = 0
KAI1 242337Z 16007KT 16/15 A299 RMK A01 T01610153  RH  095%=      5-min Rain = 0
KAI1 242338Z 15007KT 16/15 A299 RMK A01 T01610153  RH  095%=      5-min Rain = 0
KAI1 242339Z 15006KT 16/15 A2989 RMK A01 T01610154  RH  095%=      5-min Rain = 0
KAI1 242340Z 15006KT 16/15 A2989 RMK A01 T01610154  RH  095%=      5-min Rain = 0
KAI1 242341Z 16005KT 16/15 A2988 RMK A01 T01610153  RH  095%=      5-min Rain = 0
KAI1 242342Z 17005KT 16/15 A2988 RMK A01 T01610153  RH  095%=      5-min Rain = 0
KAI1 242343Z 16006KT 16/15 A2988 RMK A01 T01600152  RH  095%=      5-min Rain = 0
KAI1 242344Z 16006KT 16/15 A2988 RMK A01 T01600153  RH  095%=      5-min Rain = 0
KAI1 242345Z 15008KT 16/15 A2989 RMK A01 T01610154  RH  096%=      5-min Rain = 0
KAI1 242346Z 14010KT 16/15 A2989 RMK A01 T01610154  RH  096%=      5-min Rain = 0
KAI1 242347Z 13010KT 16/15 A2989 RMK A01 T01610154  RH  096%=      5-min Rain = 0
KAI1 242348Z 13013KT 16/15 A299 RMK A01 T01610154  RH  096%=      5-min Rain = 0
KAI1 242349Z 13014KT 16/15 A299 RMK A01 T01610154  RH  096%=      5-min Rain = 0
KAI1 242350Z 13014KT 16/15 A299 RMK A01 T01610154  RH  096%=      5-min Rain = 0
KAI1 242351Z 13013KT 16/16 A299 RMK A01 T01610155  RH  096%=      5-min Rain = 0
KAI1 242352Z 14011KT 16/16 A299 RMK A01 T01610155  RH  096%=      5-min Rain = 0
KAI1 242353Z 15009KT 16/16 A299 RMK A01 T01610155  RH  096%=      5-min Rain = 0
KAI1 242354Z 15010KT 16/16 A299 RMK A01 T01610155  RH  096%=      5-min Rain = 0
KAI1 242355Z 15011KT 16/16 A299 RMK A01 T01610155  RH  097%=      5-min Rain = 0
KAI1 242356Z 15011KT 16/16 A299 RMK A01 T01610156  RH  097%=      5-min Rain = 0
KAI1 242357Z 15009KT 16/16 A299 RMK A01 T01610156  RH  097%=      5-min Rain = 0
KAI1 242358Z 14010KT 16/16 A2989 RMK A01 T01610156  RH  097%=      5-min Rain = 0
KAI1 242359Z 14009KT 16/16 A2989 RMK A01 T01610157  RH  097%=      5-min Rain = 0
KAI1 250000Z 15008KT 16/16 A299 RMK A01 T01620157  RH  097%=      5-min Rain = 0
KAI1 250001Z 16009KT 16/16 A299 RMK A01 T01620157  RH  097%=      5-min Rain = 0
KAI1 250002Z 16011KT 16/16 A299 RMK A01 T01620157  RH  097%=      5-min Rain = 0
KAI1 250003Z 16011KT 16/16 A299 RMK A01 T01620158  RH  097%=      5-min Rain = 0
KAI1 250004Z 16009KT 16/16 A299 RMK A01 T01620158  RH  097%=      5-min Rain = 0
KAI1 250005Z 16009KT 16/16 A299 RMK A01 T01630158  RH  097%=      5-min Rain = 0
KAI1 250006Z 15011KT 16/16 A299 RMK A01 T01630158  RH  097%=      5-min Rain = 0
KAI1 250007Z 15012KT 16/16 A2991 RMK A01 T01630158  RH  097%=      5-min Rain = 0
KAI1 250008Z 15013KT 16/16 A2991 RMK A01 T01630159  RH  097%=      5-min Rain = 0
KAI1 250009Z 15013KT 16/16 A2991 RMK A01 T01640159  RH  097%=      5-min Rain = 0
KAI1 250010Z 15012KT 16/16 A2991 RMK A01 T01640159  RH  097%=      5-min Rain = 0
KAI1 250011Z 15013KT 16/16 A299 RMK A01 T01640158  RH  096%=      5-min Rain = 0
KAI1 250012Z 15012KT 17/16 A299 RMK A01 T01650158  RH  096%=      5-min Rain = 0
KAI1 250013Z 15013KT 17/16 A299 RMK A01 T01650159  RH  096%=      5-min Rain = 0
KAI1 250014Z 15012KT 17/16 A299 RMK A01 T01650158  RH  096%=      5-min Rain = 0
KAI1 250015Z 15013KT 17/16 A2989 RMK A01 T01650158  RH  095%=      5-min Rain = 0
KAI1 250016Z 15010KT 17/16 A2989 RMK A01 T01660157  RH  095%=      5-min Rain = 0
KAI1 250017Z 15009KT 17/16 A2989 RMK A01 T01660157  RH  095%=      5-min Rain = 0
KAI1 250018Z 16011KT 17/16 A2989 RMK A01 T01660157  RH  095%=      5-min Rain = 0
KAI1 250019Z 16011KT 17/16 A2989 RMK A01 T01660157  RH  094%=      5-min Rain = 0
KAI1 250020Z 16011KT 17/16 A2989 RMK A01 T01660157  RH  094%=      5-min Rain = 0
KAI1 250021Z 16012KT 17/16 A2989 RMK A01 T01660157  RH  094%=      5-min Rain = 0
KAI1 250022Z 16011KT 17/16 A2989 RMK A01 T01670157  RH  094%=      5-min Rain = 0
KAI1 250023Z 16011KT 17/16 A299 RMK A01 T01660157  RH  094%=      5-min Rain = 0
KAI1 250024Z 17011KT 17/16 A299 RMK A01 T01660156  RH  094%=      5-min Rain = 0
KAI1 250025Z 17012KT 17/16 A299 RMK A01 T01670156  RH  094%=      5-min Rain = 0
KAI1 250026Z 17012KT 17/16 A299 RMK A01 T01670156  RH  094%=      5-min Rain = 0
KAI1 250027Z 17012KT 17/16 A299 RMK A01 T01670156  RH  093%=      5-min Rain = 0
KAI1 250028Z 17012KT 17/16 A299 RMK A01 T01670156  RH  093%=      5-min Rain = 0
KAI1 250029Z 17012KT 17/16 A299 RMK A01 T01670156  RH  093%=      5-min Rain = 0
KAI1 250030Z 17014KT 17/16 A299 RMK A01 T01670157  RH  093%=      5-min Rain = 0
KAI1 250031Z 17015KT 17/16 A299 RMK A01 T01680156  RH  093%=      5-min Rain = 0
KAI1 250032Z 16014KT 17/16 A299 RMK A01 T01680156  RH  093%=      5-min Rain = 0
KAI1 250033Z 15013KT 17/16 A299 RMK A01 T01680156  RH  093%=      5-min Rain = 0
KAI1 250034Z 16014KT 17/16 A299 RMK A01 T01690156  RH  092%=      5-min Rain = 0
KAI1 250035Z 16014KT 17/16 A299 RMK A01 T01690157  RH  092%=      5-min Rain = 0
KAI1 250036Z 16015KT 17/16 A299 RMK A01 T01700157  RH  092%=      5-min Rain = 0
KAI1 250037Z 16015KT 17/16 A299 RMK A01 T01700156  RH  092%=      5-min Rain = 0
KAI1 250038Z 16014KT 17/16 A299 RMK A01 T01700156  RH  091%=      5-min Rain = 0
KAI1 250039Z 16014KT 17/16 A299 RMK A01 T01700156  RH  091%=      5-min Rain = 0
KAI1 250040Z 17015KT 17/16 A299 RMK A01 T01690155  RH  091%=      5-min Rain = 0
KAI1 250041Z 17014KT 17/16 A299 RMK A01 T01690155  RH  091%=      5-min Rain = 0
KAI1 250042Z 17015KT 17/15 A2989 RMK A01 T01690154  RH  091%=      5-min Rain = 0
KAI1 250043Z 17014KT 17/15 A2989 RMK A01 T01690154  RH  091%=      5-min Rain = 0
KAI1 250044Z 18014KT 17/15 A2989 RMK A01 T01690154  RH  091%=      5-min Rain = 0
KAI1 250045Z 18016KT 17/15 A299 RMK A01 T01680153  RH  091%=      5-min Rain = 0
KAI1 250046Z 18016KT 17/15 A299 RMK A01 T01680153  RH  091%=      5-min Rain = 0
KAI1 250047Z 18017KT 17/15 A299 RMK A01 T01680153  RH  091%=      5-min Rain = 0
KAI1 250048Z 17017KT 17/15 A299 RMK A01 T01680153  RH  091%=      5-min Rain = 0
KAI1 250049Z 17015KT 17/15 A2991 RMK A01 T01690153  RH  091%=      5-min Rain = 0
KAI1 250050Z 16016KT 17/16 A2991 RMK A01 T01690155  RH  091%=      5-min Rain = 0
KAI1 250051Z 16015KT 17/16 A2991 RMK A01 T01700155  RH  091%=      5-min Rain = 0
KAI1 250052Z 16015KT 17/16 A2991 RMK A01 T01700155  RH  091%=      5-min Rain = 0
KAI1 250053Z 16017KT 17/16 A2991 RMK A01 T01710156  RH  091%=      5-min Rain = 0
KAI1 250054Z 16016KT 17/16 A2992 RMK A01 T01710156  RH  091%=      5-min Rain = 0
KAI1 250055Z 16018KT 17/16 A2992 RMK A01 T01720156  RH  090%=      5-min Rain = 0
KAI1 250056Z 17019KT 17/16 A2992 RMK A01 T01720155  RH  090%=      5-min Rain = 0
KAI1 250057Z 17022G27KT 17/15 A2992 RMK A01 T01710153  RH  089%=      5-min Rain = 0
KAI1 250058Z 17020KT 17/15 A2992 RMK A01 T01710150  RH  088%=      5-min Rain = 0
KAI1 250059Z 17019KT 17/15 A2992 RMK A01 T01700148  RH  087%=      5-min Rain = 0
KAI1 250100Z 17021KT 17/15 A2992 RMK A01 T01700147  RH  087%=      5-min Rain = 0
KAI1 250101Z 17019KT 17/15 A2991 RMK A01 T01700146  RH  086%=      5-min Rain = 0
KAI1 250102Z 16020KT 17/15 A2991 RMK A01 T01700146  RH  086%=      5-min Rain = 0
KAI1 250103Z 16020KT 17/15 A299 RMK A01 T01690145  RH  086%=      5-min Rain = 0
KAI1 250104Z 16020KT 17/15 A2989 RMK A01 T01690145  RH  085%=      5-min Rain = 0
KAI1 250105Z 16018KT 17/15 A2989 RMK A01 T01710146  RH  085%=      5-min Rain = 0
KAI1 250106Z 16018G23KT 17/15 A2989 RMK A01 T01710145  RH  085%=      5-min Rain = 0
KAI1 250107Z 16018KT 17/15 A2989 RMK A01 T01720145  RH  084%=      5-min Rain = 0
KAI1 250108Z 16017KT 17/14 A2988 RMK A01 T01720144  RH  084%=      5-min Rain = 0
KAI1 250109Z 16017KT 17/15 A2989 RMK A01 T01730145  RH  084%=      5-min Rain = 0
KAI1 250110Z 16016KT 17/15 A2988 RMK A01 T01730145  RH  083%=      5-min Rain = 0
KAI1 250111Z 16014KT 17/14 A2988 RMK A01 T01730144  RH  083%=      5-min Rain = 0
KAI1 250112Z 16014KT 17/15 A2988 RMK A01 T01730145  RH  084%=      5-min Rain = 0
KAI1 250113Z 17014KT 17/15 A2988 RMK A01 T01740146  RH  084%=      5-min Rain = 0
KAI1 250114Z 17013KT 17/15 A2988 RMK A01 T01740146  RH  084%=      5-min Rain = 0
KAI1 250115Z 17014KT 17/15 A2988 RMK A01 T01740146  RH  084%=      5-min Rain = 0
KAI1 250116Z 17015KT 17/15 A2989 RMK A01 T01730147  RH  084%=      5-min Rain = 0
KAI1 250117Z 17017KT 17/15 A2989 RMK A01 T01730147  RH  085%=      5-min Rain = 0
KAI1 250118Z 18019KT 17/15 A299 RMK A01 T01730146  RH  084%=      5-min Rain = 0
KAI1 250119Z 18022G27KT 17/15 A299 RMK A01 T01730146  RH  084%=      5-min Rain = 0
KAI1 250120Z 18024KT 17/15 A299 RMK A01 T01730146  RH  084%=      5-min Rain = 0
KAI1 250121Z 18022KT 17/15 A2991 RMK A01 T01720147  RH  085%=      5-min Rain = 0
KAI1 250122Z 18021KT 17/15 A2991 RMK A01 T01710148  RH  086%=      5-min Rain = 0
KAI1 250123Z 18021KT 17/15 A2991 RMK A01 T01700149  RH  087%=      5-min Rain = 0
KAI1 250124Z 18022KT 17/15 A2991 RMK A01 T01690149  RH  088%=      5-min Rain = 0
KAI1 250125Z 18022KT 17/15 A2991 RMK A01 T01690150  RH  089%=      5-min Rain = 0
KAI1 250126Z 19021KT 17/15 A2992 RMK A01 T01680150  RH  089%=      5-min Rain = 0
KAI1 250127Z 19021KT 17/15 A2992 RMK A01 T01680150  RH  089%=      5-min Rain = 0
KAI1 250128Z 19017KT 17/15 A2992 RMK A01 T01680151  RH  090%=      5-min Rain = 0
KAI1 250129Z 19022KT 17/15 A2991 RMK A01 T01670151  RH  090%=      5-min Rain = 0
KAI1 250130Z 19022KT 17/15 A2991 RMK A01 T01680149  RH  089%=      5-min Rain = 0
KAI1 250131Z 18022KT 17/15 A2991 RMK A01 T01680147  RH  087%=      5-min Rain = 0
KAI1 250132Z 18022KT 17/15 A2991 RMK A01 T01690146  RH  086%=      5-min Rain = 0
KAI1 250133Z 18021KT 17/15 A2991 RMK A01 T01710145  RH  085%=      5-min Rain = 0
KAI1 250134Z 18023KT 17/14 A2991 RMK A01 T01720142  RH  082%=      5-min Rain = 0
KAI1 250135Z 18022KT 17/14 A2991 RMK A01 T01740141  RH  081%=      5-min Rain = 0
KAI1 250136Z 18022KT 18/14 A2991 RMK A01 T01750142  RH  081%=      5-min Rain = 0
KAI1 250137Z 18023KT 18/14 A2991 RMK A01 T01750143  RH  081%=      5-min Rain = 0
KAI1 250138Z 18023KT 18/14 A2991 RMK A01 T01760143  RH  081%=      5-min Rain = 0
KAI1 250139Z 18025KT 18/14 A299 RMK A01 T01770144  RH  081%=      5-min Rain = 0
KAI1 250140Z 17024KT 18/14 A299 RMK A01 T01770144  RH  081%=      5-min Rain = 0
KAI1 250141Z 17025KT 18/14 A299 RMK A01 T01770144  RH  081%=      5-min Rain = 0
KAI1 250142Z 17024KT 18/14 A299 RMK A01 T01780144  RH  081%=      5-min Rain = 0
KAI1 250143Z 17025KT 18/15 A299 RMK A01 T01780145  RH  081%=      5-min Rain = 0
KAI1 250144Z 16023KT 18/14 A299 RMK A01 T01760144  RH  082%=      5-min Rain = 0
KAI1 250145Z 16022KT 18/14 A299 RMK A01 T01750144  RH  082%=      5-min Rain = 0
KAI1 250146Z 17020KT 17/14 A299 RMK A01 T01730144  RH  083%=      5-min Rain = 0
KAI1 250147Z 17022KT 17/15 A299 RMK A01 T01720145  RH  084%=      5-min Rain = 0
KAI1 250148Z 16021KT 17/15 A299 RMK A01 T01710145  RH  085%=      5-min Rain = 0
KAI1 250149Z 16021KT 17/15 A299 RMK A01 T01710145  RH  085%=      5-min Rain = 0
KAI1 250150Z 16019KT 17/15 A299 RMK A01 T01700146  RH  086%=      5-min Rain = 0
KAI1 250151Z 16020KT 17/15 A299 RMK A01 T01690146  RH  086%=      5-min Rain = 0
KAI1 250152Z 16019KT 17/15 A299 RMK A01 T01690146  RH  087%=      5-min Rain = 0
KAI1 250153Z 16019KT 17/15 A2991 RMK A01 T01690147  RH  087%=      5-min Rain = 0
KAI1 250154Z 16019KT 17/15 A2991 RMK A01 T01680147  RH  087%=      5-min Rain = 0
KAI1 250155Z 17018KT 17/15 A2991 RMK A01 T01680147  RH  088%=      5-min Rain = 0
KAI1 250156Z 17017KT 17/15 A2991 RMK A01 T01680147  RH  087%=      5-min Rain = 0
KAI1 250157Z 17017KT 17/15 A2991 RMK A01 T01680146  RH  087%=      5-min Rain = 0
KAI1 250158Z 17018KT 17/15 A2991 RMK A01 T01680145  RH  086%=      5-min Rain = 0
KAI1 250159Z 18017KT 17/15 A2991 RMK A01 T01690145  RH  086%=      5-min Rain = 0
KAI1 250200Z 18018KT 17/15 A2991 RMK A01 T01700145  RH  085%=      5-min Rain = 0
KAI1 250201Z 18020KT 17/14 A2991 RMK A01 T01710144  RH  084%=      5-min Rain = 0
KAI1 250202Z 18020KT 17/14 A2991 RMK A01 T01720144  RH  084%=      5-min Rain = 0
KAI1 250203Z 18019G24KT 17/15 A2991 RMK A01 T01730145  RH  084%=      5-min Rain = 0
KAI1 250204Z 18020KT 17/14 A2991 RMK A01 T01730143  RH  083%=      5-min Rain = 0
KAI1 250205Z 18019KT 17/14 A2991 RMK A01 T01740144  RH  082%=      5-min Rain = 0
KAI1 250206Z 18018KT 18/15 A2991 RMK A01 T01750145  RH  083%=      5-min Rain = 0
KAI1 250207Z 18018KT 17/15 A299 RMK A01 T01740145  RH  083%=      5-min Rain = 0
KAI1 250208Z 17018KT 17/15 A299 RMK A01 T01730145  RH  084%=      5-min Rain = 0
KAI1 250209Z 17018KT 17/15 A299 RMK A01 T01720145  RH  084%=      5-min Rain = 0
KAI1 250210Z 17018KT 17/15 A299 RMK A01 T01720145  RH  084%=      5-min Rain = 0
KAI1 250211Z 17016KT 17/15 A299 RMK A01 T01710145  RH  085%=      5-min Rain = 0
KAI1 250212Z 17018KT 17/15 A299 RMK A01 T01700145  RH  085%=      5-min Rain = 0
KAI1 250213Z 18016KT 17/15 A299 RMK A01 T01700146  RH  086%=      5-min Rain = 0
KAI1 250214Z 18016KT 17/15 A299 RMK A01 T01690146  RH  086%=      5-min Rain = 0
KAI1 250215Z 18017KT 17/15 A299 RMK A01 T01680146  RH  087%=      5-min Rain = 0
KAI1 250216Z 18018KT 17/15 A2989 RMK A01 T01680146  RH  087%=      5-min Rain = 0
KAI1 250217Z 18018KT 17/15 A2989 RMK A01 T01680147  RH  087%=      5-min Rain = 0
KAI1 250218Z 18015KT 17/15 A2989 RMK A01 T01680147  RH  087%=      5-min Rain = 0
KAI1 250219Z 18016KT 17/15 A2989 RMK A01 T01680147  RH  088%=      5-min Rain = 0
KAI1 250220Z 18014KT 17/15 A2989 RMK A01 T01680148  RH  088%=      5-min Rain = 0
KAI1 250221Z 19013KT 17/15 A2989 RMK A01 T01680148  RH  088%=      5-min Rain = 0
KAI1 250222Z 20012KT 17/15 A299 RMK A01 T01680149  RH  088%=      5-min Rain = 0
KAI1 250223Z 22014KT 17/15 A299 RMK A01 T01680148  RH  088%=      5-min Rain = 0
KAI1 250224Z 21014KT 17/15 A299 RMK A01 T01680148  RH  088%=      5-min Rain = 0
KAI1 250225Z 20013KT 17/15 A299 RMK A01 T01680148  RH  088%=      5-min Rain = 0
KAI1 250226Z 21012KT 17/15 A299 RMK A01 T01680148  RH  088%=      5-min Rain = 0
KAI1 250227Z 22010KT 17/15 A2991 RMK A01 T01680149  RH  088%=      5-min Rain = 0
KAI1 250228Z 22012KT 17/15 A2991 RMK A01 T01680149  RH  089%=      5-min Rain = 0
KAI1 250229Z 22011KT 17/15 A2992 RMK A01 T01670149  RH  089%=      5-min Rain = 0
KAI1 250230Z 22010KT 17/15 A2992 RMK A01 T01670149  RH  089%=      5-min Rain = 0
KAI1 250231Z 21009KT 17/15 A2992 RMK A01 T01670149  RH  089%=      5-min Rain = 0
KAI1 250232Z 22009KT 17/15 A2992 RMK A01 T01670149  RH  089%=      5-min Rain = 0
KAI1 250233Z 21008KT 17/15 A2992 RMK A01 T01670149  RH  089%=      5-min Rain = 0
KAI1 250234Z 20009KT 17/15 A2993 RMK A01 T01670149  RH  089%=      5-min Rain = 0
KAI1 250235Z 20009KT 17/15 A2993 RMK A01 T01670148  RH  089%=      5-min Rain = 0
KAI1 250236Z 20011KT 17/15 A2993 RMK A01 T01680147  RH  087%=      5-min Rain = 0
KAI1 250237Z 20011KT 17/15 A2993 RMK A01 T01700147  RH  086%=      5-min Rain = 0
KAI1 250238Z 19012KT 17/15 A2993 RMK A01 T01710147  RH  086%=      5-min Rain = 0
KAI1 250239Z 18013KT 17/15 A2993 RMK A01 T01710147  RH  086%=      5-min Rain = 0
KAI1 250240Z 18014KT 17/15 A2994 RMK A01 T01720148  RH  086%=      5-min Rain = 0
KAI1 250241Z 18015KT 17/15 A2994 RMK A01 T01710147  RH  086%=      5-min Rain = 0
KAI1 250242Z 19014KT 17/15 A2993 RMK A01 T01720147  RH  085%=      5-min Rain = 0
KAI1 250243Z 20013KT 17/15 A2993 RMK A01 T01720147  RH  085%=      5-min Rain = 0
KAI1 250244Z 19013KT 17/15 A2994 RMK A01 T01720147  RH  086%=      5-min Rain = 0
KAI1 250245Z 19013KT 17/15 A2994 RMK A01 T01710148  RH  086%=      5-min Rain = 0
KAI1 250246Z 20014KT 17/15 A2994 RMK A01 T01710147  RH  086%=      5-min Rain = 0
KAI1 250247Z 19012KT 17/15 A2994 RMK A01 T01710147  RH  086%=      5-min Rain = 0
KAI1 250248Z 19011KT 17/15 A2994 RMK A01 T01710148  RH  086%=      5-min Rain = 0
KAI1 250249Z 19012KT 17/15 A2994 RMK A01 T01710148  RH  086%=      5-min Rain = 0
KAI1 250250Z 19013KT 17/15 A2994 RMK A01 T01710148  RH  086%=      5-min Rain = 0
KAI1 250251Z 19014KT 17/15 A2994 RMK A01 T01720148  RH  086%=      5-min Rain = 0
KAI1 250252Z 20015KT 17/15 A2994 RMK A01 T01720148  RH  086%=      5-min Rain = 0
KAI1 250253Z 20013KT 17/15 A2994 RMK A01 T01730148  RH  085%=      5-min Rain = 0
KAI1 250254Z 19013KT 17/15 A2994 RMK A01 T01730148  RH  085%=      5-min Rain = 0
KAI1 250255Z 19014KT 17/15 A2994 RMK A01 T01730148  RH  085%=      5-min Rain = 0
KAI1 250256Z 19014KT 17/15 A2995 RMK A01 T01740148  RH  085%=      5-min Rain = 0
KAI1 250257Z 19014KT 17/15 A2995 RMK A01 T01740148  RH  085%=      5-min Rain = 0
KAI1 250258Z 20013KT 17/15 A2996 RMK A01 T01740148  RH  085%=      5-min Rain = 0
KAI1 250259Z 21013KT 17/15 A2996 RMK A01 T01740148  RH  085%=      5-min Rain = 0
KAI1 250300Z 23013KT 17/15 A2997 RMK A01 T01740148  RH  085%=      5-min Rain = 0
KAI1 250301Z 23012KT 17/15 A2998 RMK A01 T01740149  RH  086%=      5-min Rain = 0
KAI1 250302Z 23013KT 17/15 A2998 RMK A01 T01730150  RH  086%=      5-min Rain = 0
KAI1 250303Z 24014KT 17/15 A2999 RMK A01 T01720150  RH  087%=      5-min Rain = 0
KAI1 250304Z 23016KT 17/15 A2999 RMK A01 T01710151  RH  087%=      5-min Rain = 0
KAI1 250305Z 22015KT 17/15 A2999 RMK A01 T01710151  RH  088%=      5-min Rain = 0
KAI1 250306Z 22013KT 17/15 A2999 RMK A01 T01720151  RH  087%=      5-min Rain = 0
KAI1 250307Z 21012KT 17/15 A2999 RMK A01 T01720151  RH  087%=      5-min Rain = 0
KAI1 250308Z 20011KT 17/15 A2998 RMK A01 T01730152  RH  087%=      5-min Rain = 0
KAI1 250309Z 20013KT 17/15 A2998 RMK A01 T01740153  RH  087%=      5-min Rain = 0
KAI1 250310Z 19014KT 18/15 A2997 RMK A01 T01760153  RH  087%=      5-min Rain = 0
KAI1 250311Z 19016KT 18/15 A2997 RMK A01 T01780154  RH  086%=      5-min Rain = 0.01
KAI1 250312Z 19016KT 18/16 A2997 RMK A01 T01790156  RH  087%=      5-min Rain = 0
KAI1 250313Z 20020KT 18/16 A2997 RMK A01 T01790158  RH  087%=      5-min Rain = 0.01
KAI1 250314Z 20025KT 18/16 A2997 RMK A01 T01820161  RH  088%=      5-min Rain = 0.01
KAI1 250315Z 20022KT 19/17 A2997 RMK A01 T01880166  RH  087%=      5-min Rain = 0.01
KAI1 250316Z 19017KT 20/17 A2997 RMK A01 T01950166  RH  083%=      5-min Rain = 0
KAI1 250317Z 20016KT 20/16 A2998 RMK A01 T01960164  RH  082%=      5-min Rain = 0.01
KAI1 250318Z 19018KT 19/16 A2998 RMK A01 T01930164  RH  083%=      5-min Rain = 0
KAI1 250319Z 20017KT 19/16 A2997 RMK A01 T01910164  RH  084%=      5-min Rain = 0
KAI1 250320Z 20017KT 19/16 A2998 RMK A01 T01920163  RH  084%=      5-min Rain = 0
KAI1 250321Z 19016KT 19/16 A2997 RMK A01 T01930164  RH  083%=      5-min Rain = 0
KAI1 250322Z 20014KT 19/16 A2997 RMK A01 T01940164  RH  083%=      5-min Rain = 0
KAI1 250323Z 20012KT 20/17 A2997 RMK A01 T01950165  RH  083%=      5-min Rain = 0
KAI1 250324Z 20013KT 19/17 A2997 RMK A01 T01930165  RH  084%=      5-min Rain = 0
KAI1 250325Z 20015KT 19/17 A2998 RMK A01 T01920165  RH  084%=      5-min Rain = 0
KAI1 250326Z 20015KT 19/16 A2998 RMK A01 T01920164  RH  084%=      5-min Rain = 0
KAI1 250327Z 20016KT 19/17 A2999 RMK A01 T01920165  RH  084%=      5-min Rain = 0
KAI1 250328Z 20014KT 19/17 A2999 RMK A01 T01920165  RH  084%=      5-min Rain = 0.01
KAI1 250329Z 20013KT 19/17 A2999 RMK A01 T01910166  RH  085%=      5-min Rain = 0
KAI1 250330Z 21015KT 19/17 A2999 RMK A01 T01920166  RH  085%=      5-min Rain = 0.01
KAI1 250331Z 21017KT 19/17 A2998 RMK A01 T01940167  RH  084%=      5-min Rain = 0
KAI1 250332Z 22017KT 20/17 A2999 RMK A01 T01950168  RH  084%=      5-min Rain = 0.02
KAI1 250333Z 21019KT 20/17 A2999 RMK A01 T01950170  RH  085%=      5-min Rain = 0.05
KAI1 250334Z 20021KT 19/17 A2998 RMK A01 T01940171  RH  087%=      5-min Rain = 0.03
KAI1 250335Z 20022KT 19/17 A2998 RMK A01 T01930170  RH  086%=      5-min Rain = 0.03
KAI1 250336Z 20022KT 19/17 A2999 RMK A01 T01890167  RH  087%=      5-min Rain = 0.05
KAI1 250337Z 21020KT 18/16 A30 RMK A01 T01800156  RH  086%=      5-min Rain = 0.05
KAI1 250338Z 21018KT 17/15 A30 RMK A01 T01710150  RH  088%=      5-min Rain = 0.06
KAI1 250339Z 20017KT 16/14 A30 RMK A01 T01620140  RH  087%=      5-min Rain = 0.04
KAI1 250340Z 18013KT 16/13 A3001 RMK A01 T01570132  RH  085%=      5-min Rain = 0.02
KAI1 250341Z 17012KT 15/13 A30 RMK A01 T01530130  RH  086%=      5-min Rain = 0.04
KAI1 250342Z 16013KT 15/13 A30 RMK A01 T01520131  RH  087%=      5-min Rain = 0.03
KAI1 250343Z 16012KT 15/13 A2999 RMK A01 T01500129  RH  088%=      5-min Rain = 0.02
KAI1 250344Z 15016G21KT 15/13 A2999 RMK A01 T01480129  RH  088%=      5-min Rain = 0.01
KAI1 250345Z 15017KT 15/13 A2999 RMK A01 T01490128  RH  087%=      5-min Rain = 0
KAI1 250346Z 14016KT 15/13 A2999 RMK A01 T01490126  RH  086%=      5-min Rain = 0
KAI1 250347Z 14017KT 15/13 A2999 RMK A01 T01500126  RH  085%=      5-min Rain = 0
KAI1 250348Z 14016KT 15/13 A2998 RMK A01 T01520125  RH  084%=      5-min Rain = 0
KAI1 250349Z 13016KT 15/12 A2998 RMK A01 T01530124  RH  083%=      5-min Rain = 0
KAI1 250350Z 13013KT 16/13 A2998 RMK A01 T01560125  RH  082%=      5-min Rain = 0
KAI1 250351Z 14013KT 16/13 A2998 RMK A01 T01570126  RH  082%=      5-min Rain = 0
KAI1 250352Z 14012KT 16/13 A2998 RMK A01 T01590126  RH  081%=      5-min Rain = 0
KAI1 250353Z 14011KT 16/13 A2999 RMK A01 T01600128  RH  082%=      5-min Rain = 0
KAI1 250354Z 15010KT 16/14 A2999 RMK A01 T01600135  RH  085%=      5-min Rain = 0
KAI1 250355Z 15010KT 16/14 A2999 RMK A01 T01600136  RH  086%=      5-min Rain = 0
KAI1 250356Z 15011KT 16/14 A2999 RMK A01 T01610138  RH  086%=      5-min Rain = 0.01
KAI1 250357Z 16013KT 16/14 A2999 RMK A01 T01610139  RH  087%=      5-min Rain = 0
KAI1 250358Z 16013KT 16/14 A2999 RMK A01 T01600138  RH  087%=      5-min Rain = 0
KAI1 250359Z 17011KT 16/14 A2999 RMK A01 T01630141  RH  087%=      5-min Rain = 0
KAI1 250400Z 17012KT 17/14 A2999 RMK A01 T01690140  RH  083%=      5-min Rain = 0
KAI1 250401Z 18013KT 17/14 A30 RMK A01 T01730137  RH  080%=      5-min Rain = 0
KAI1 250402Z 17014KT 17/14 A30 RMK A01 T01740136  RH  078%=      5-min Rain = 0
KAI1 250403Z 16013KT 18/14 A30 RMK A01 T01760138  RH  078%=      5-min Rain = 0.01
KAI1 250404Z 16012KT 18/14 A30 RMK A01 T01760141  RH  080%=      5-min Rain = 0
KAI1 250405Z 15011KT 17/14 A30 RMK A01 T01740142  RH  082%=      5-min Rain = 0
KAI1 250406Z 15012KT 17/14 A30 RMK A01 T01710142  RH  083%=      5-min Rain = 0.01
KAI1 250407Z 16012KT 17/14 A30 RMK A01 T01690141  RH  084%=      5-min Rain = 0
KAI1 250408Z 16012KT 17/14 A3001 RMK A01 T01670140  RH  084%=      5-min Rain = 0.01
KAI1 250409Z 17012KT 17/14 A3001 RMK A01 T01660140  RH  085%=      5-min Rain = 0
KAI1 250410Z 17012KT 17/14 A3001 RMK A01 T01650141  RH  085%=      5-min Rain = 0.01
KAI1 250411Z 17013KT 17/14 A3001 RMK A01 T01650142  RH  086%=      5-min Rain = 0
KAI1 250412Z 17013KT 16/14 A30 RMK A01 T01640143  RH  087%=      5-min Rain = 0.01
KAI1 250413Z 17015KT 16/14 A30 RMK A01 T01630143  RH  088%=      5-min Rain = 0.01
KAI1 250414Z 17015KT 16/15 A30 RMK A01 T01620146  RH  090%=      5-min Rain = 0.02
KAI1 250415Z 17015KT 16/15 A30 RMK A01 T01620147  RH  091%=      5-min Rain = 0.02
KAI1 250416Z 17016KT 16/15 A30 RMK A01 T01610148  RH  092%=      5-min Rain = 0.02
KAI1 250417Z 16018KT 16/15 A2999 RMK A01 T01620150  RH  093%=      5-min Rain = 0.02
KAI1 250418Z 15017KT 16/15 A2999 RMK A01 T01630152  RH  093%=      5-min Rain = 0.02
KAI1 250419Z 15020G25KT 16/15 A2998 RMK A01 T01640154  RH  094%=      5-min Rain = 0.02
KAI1 250420Z 15026KT 17/16 A2998 RMK A01 T01660158  RH  095%=      5-min Rain = 0.02
KAI1 250421Z 16029KT 17/16 A2997 RMK A01 T01670159  RH  095%=      5-min Rain = 0.01
KAI1 250422Z 15024KT 17/16 A2998 RMK A01 T01690158  RH  093%=      5-min Rain = 0.02
KAI1 250423Z 15027KT 17/16 A2997 RMK A01 T01680156  RH  092%=      5-min Rain = 0
KAI1 250424Z 15030KT 17/16 A2997 RMK A01 T01700157  RH  092%=      5-min Rain = 0.01
KAI1 250425Z 15026KT 18/17 A2998 RMK A01 T01770165  RH  093%=      5-min Rain = 0
KAI1 250426Z 15024KT 18/17 A2998 RMK A01 T01820170  RH  092%=      5-min Rain = 0
KAI1 250427Z 14021KT 19/17 A2999 RMK A01 T01870172  RH  091%=      5-min Rain = 0
KAI1 250428Z 14018KT 19/17 A2999 RMK A01 T01910169  RH  087%=      5-min Rain = 0.01
KAI1 250429Z 16018KT 19/16 A2999 RMK A01 T01900162  RH  084%=      5-min Rain = 0
KAI1 250430Z 16016KT 19/16 A2999 RMK A01 T01870162  RH  085%=      5-min Rain = 0
KAI1 250431Z 16014KT 19/16 A2999 RMK A01 T01850162  RH  086%=      5-min Rain = 0
KAI1 250432Z 16013KT 18/16 A2999 RMK A01 T01840161  RH  087%=      5-min Rain = 0
KAI1 250433Z 16013KT 18/16 A2999 RMK A01 T01830161  RH  087%=      5-min Rain = 0
KAI1 250434Z 17014KT 18/16 A2999 RMK A01 T01810160  RH  088%=      5-min Rain = 0
KAI1 250435Z 16012KT 18/16 A2999 RMK A01 T01800160  RH  088%=      5-min Rain = 0
KAI1 250436Z 16012KT 18/16 A2999 RMK A01 T01800159  RH  088%=      5-min Rain = 0
KAI1 250437Z 16013KT 18/16 A2999 RMK A01 T01790158  RH  088%=      5-min Rain = 0
KAI1 250438Z 16012KT 18/16 A2999 RMK A01 T01800157  RH  087%=      5-min Rain = 0
KAI1 250439Z 16013KT 18/16 A2999 RMK A01 T01800157  RH  086%=      5-min Rain = 0
KAI1 250440Z 16012KT 18/16 A2999 RMK A01 T01810158  RH  086%=      5-min Rain = 0
KAI1 250441Z 17011KT 18/16 A2999 RMK A01 T01800156  RH  086%=      5-min Rain = 0
KAI1 250442Z 16010KT 18/16 A2999 RMK A01 T01800155  RH  086%=      5-min Rain = 0
KAI1 250443Z 16010KT 18/16 A2999 RMK A01 T01780155  RH  086%=      5-min Rain = 0
KAI1 250444Z 16011KT 18/16 A2999 RMK A01 T01760155  RH  087%=      5-min Rain = 0
KAI1 250445Z 16012KT 18/16 A2999 RMK A01 T01750155  RH  088%=      5-min Rain = 0
KAI1 250446Z 16012KT 18/16 A2999 RMK A01 T01750156  RH  089%=      5-min Rain = 0
KAI1 250447Z 16011KT 17/16 A2999 RMK A01 T01740157  RH  089%=      5-min Rain = 0
KAI1 250448Z 16011KT 17/16 A2999 RMK A01 T01740157  RH  090%=      5-min Rain = 0
KAI1 250449Z 16012KT 17/16 A2999 RMK A01 T01740158  RH  090%=      5-min Rain = 0
KAI1 250450Z 16012KT 18/16 A2999 RMK A01 T01750159  RH  091%=      5-min Rain = 0
KAI1 250451Z 16014KT 18/16 A2999 RMK A01 T01770162  RH  091%=      5-min Rain = 0
KAI1 250452Z 15014KT 18/17 A2999 RMK A01 T01790165  RH  092%=      5-min Rain = 0
KAI1 250453Z 15014KT 18/17 A2999 RMK A01 T01800166  RH  092%=      5-min Rain = 0
KAI1 250454Z 15013KT 18/17 A2999 RMK A01 T01810167  RH  091%=      5-min Rain = 0
KAI1 250455Z 15014KT 18/17 A2999 RMK A01 T01820167  RH  091%=      5-min Rain = 0
KAI1 250456Z 15014KT 18/17 A2999 RMK A01 T01830167  RH  090%=      5-min Rain = 0
KAI1 250457Z 15014KT 19/17 A30 RMK A01 T01850168  RH  090%=      5-min Rain = 0
KAI1 250458Z 15014KT 19/17 A30 RMK A01 T01860168  RH  089%=      5-min Rain = 0
KAI1 250459Z 15014KT 19/17 A30 RMK A01 T01880168  RH  088%=      5-min Rain = 0

Page generated in 0.125 seconds.